<?xml version="1.0" encoding="UTF-8" standalone="no" ?>
<gpx xmlns="http://www.topografix.com/GPX/1/1" xmlns:xsi="http://www.w3.org/2001/XMLSchema-instance" xsi:schemaLocation="http://www.topografix.com/GPX/1/1 http://www.topografix.com/GPX/1/1/gpx.xsd" version="1.1" creator="VisuGPX - https://www.visugpx.com">
  <metadata>
    <name>2ème sortie Chemin de Halage</name>
    <desc><![CDATA[un peu plus rapide et sans pause.]]></desc>
  </metadata>
  <trk>
    <name><![CDATA[Sortie 2]]></name>
    <desc><![CDATA[Chemin de halage]]></desc>
    <trkseg>
      <trkpt lat="49.90146" lon="2.31319">
        <ele>41.41267</ele>
        <time>2013-06-18T18:32:07Z</time>
      </trkpt>
      <trkpt lat="49.90142" lon="2.31319">
        <ele>42</ele>
        <time>2013-06-18T18:32:08Z</time>
      </trkpt>
      <trkpt lat="49.90148" lon="2.31322">
        <ele>40</ele>
        <time>2013-06-18T18:32:10Z</time>
      </trkpt>
      <trkpt lat="49.90142" lon="2.31312">
        <ele>39</ele>
        <time>2013-06-18T18:32:11Z</time>
      </trkpt>
      <trkpt lat="49.9014" lon="2.31314">
        <ele>41</ele>
        <time>2013-06-18T18:32:12Z</time>
      </trkpt>
      <trkpt lat="49.90132" lon="2.31326">
        <ele>41</ele>
        <time>2013-06-18T18:32:17Z</time>
      </trkpt>
      <trkpt lat="49.90129" lon="2.31309">
        <ele>43</ele>
        <time>2013-06-18T18:32:22Z</time>
      </trkpt>
      <trkpt lat="49.9012" lon="2.3131">
        <ele>43</ele>
        <time>2013-06-18T18:32:41Z</time>
      </trkpt>
      <trkpt lat="49.90109" lon="2.3131">
        <ele>42</ele>
        <time>2013-06-18T18:32:46Z</time>
      </trkpt>
      <trkpt lat="49.90101" lon="2.31323">
        <ele>41</ele>
        <time>2013-06-18T18:32:50Z</time>
      </trkpt>
      <trkpt lat="49.90096" lon="2.31339">
        <ele>40</ele>
        <time>2013-06-18T18:32:52Z</time>
      </trkpt>
      <trkpt lat="49.9009" lon="2.31353">
        <ele>39</ele>
        <time>2013-06-18T18:32:56Z</time>
      </trkpt>
      <trkpt lat="49.90081" lon="2.31355">
        <ele>38</ele>
        <time>2013-06-18T18:33:00Z</time>
      </trkpt>
      <trkpt lat="49.90069" lon="2.31348">
        <ele>38</ele>
        <time>2013-06-18T18:33:04Z</time>
      </trkpt>
      <trkpt lat="49.9006" lon="2.31341">
        <ele>37</ele>
        <time>2013-06-18T18:33:07Z</time>
      </trkpt>
      <trkpt lat="49.90047" lon="2.31335">
        <ele>36</ele>
        <time>2013-06-18T18:33:10Z</time>
      </trkpt>
      <trkpt lat="49.90034" lon="2.31333">
        <ele>35</ele>
        <time>2013-06-18T18:33:13Z</time>
      </trkpt>
      <trkpt lat="49.90022" lon="2.31332">
        <ele>35</ele>
        <time>2013-06-18T18:33:17Z</time>
      </trkpt>
      <trkpt lat="49.90009" lon="2.31326">
        <ele>34</ele>
        <time>2013-06-18T18:33:20Z</time>
      </trkpt>
      <trkpt lat="49.89998" lon="2.31316">
        <ele>34</ele>
        <time>2013-06-18T18:33:23Z</time>
      </trkpt>
      <trkpt lat="49.89991" lon="2.31303">
        <ele>34</ele>
        <time>2013-06-18T18:33:26Z</time>
      </trkpt>
      <trkpt lat="49.89983" lon="2.31292">
        <ele>34</ele>
        <time>2013-06-18T18:33:29Z</time>
      </trkpt>
      <trkpt lat="49.89973" lon="2.31285">
        <ele>34</ele>
        <time>2013-06-18T18:33:32Z</time>
      </trkpt>
      <trkpt lat="49.89963" lon="2.31281">
        <ele>35</ele>
        <time>2013-06-18T18:33:35Z</time>
      </trkpt>
      <trkpt lat="49.89953" lon="2.31276">
        <ele>36</ele>
        <time>2013-06-18T18:33:38Z</time>
      </trkpt>
      <trkpt lat="49.89944" lon="2.31266">
        <ele>37</ele>
        <time>2013-06-18T18:33:41Z</time>
      </trkpt>
      <trkpt lat="49.89934" lon="2.31261">
        <ele>37</ele>
        <time>2013-06-18T18:33:44Z</time>
      </trkpt>
      <trkpt lat="49.89922" lon="2.31253">
        <ele>37</ele>
        <time>2013-06-18T18:33:47Z</time>
      </trkpt>
      <trkpt lat="49.89912" lon="2.31246">
        <ele>38</ele>
        <time>2013-06-18T18:33:50Z</time>
      </trkpt>
      <trkpt lat="49.89901" lon="2.31244">
        <ele>38</ele>
        <time>2013-06-18T18:33:54Z</time>
      </trkpt>
      <trkpt lat="49.89891" lon="2.3124">
        <ele>38</ele>
        <time>2013-06-18T18:33:57Z</time>
      </trkpt>
      <trkpt lat="49.8988" lon="2.31232">
        <ele>38</ele>
        <time>2013-06-18T18:34:02Z</time>
      </trkpt>
      <trkpt lat="49.89871" lon="2.31224">
        <ele>38</ele>
        <time>2013-06-18T18:34:04Z</time>
      </trkpt>
      <trkpt lat="49.89862" lon="2.31218">
        <ele>38</ele>
        <time>2013-06-18T18:34:06Z</time>
      </trkpt>
      <trkpt lat="49.89851" lon="2.3121">
        <ele>38</ele>
        <time>2013-06-18T18:34:08Z</time>
      </trkpt>
      <trkpt lat="49.89842" lon="2.31204">
        <ele>38</ele>
        <time>2013-06-18T18:34:10Z</time>
      </trkpt>
      <trkpt lat="49.89831" lon="2.31197">
        <ele>38</ele>
        <time>2013-06-18T18:34:13Z</time>
      </trkpt>
      <trkpt lat="49.8982" lon="2.31188">
        <ele>38</ele>
        <time>2013-06-18T18:34:15Z</time>
      </trkpt>
      <trkpt lat="49.89809" lon="2.3118">
        <ele>39</ele>
        <time>2013-06-18T18:34:17Z</time>
      </trkpt>
      <trkpt lat="49.89799" lon="2.31172">
        <ele>40</ele>
        <time>2013-06-18T18:34:19Z</time>
      </trkpt>
      <trkpt lat="49.89789" lon="2.31165">
        <ele>40</ele>
        <time>2013-06-18T18:34:21Z</time>
      </trkpt>
      <trkpt lat="49.89783" lon="2.31153">
        <ele>40</ele>
        <time>2013-06-18T18:34:23Z</time>
      </trkpt>
      <trkpt lat="49.89774" lon="2.3114">
        <ele>39</ele>
        <time>2013-06-18T18:34:25Z</time>
      </trkpt>
      <trkpt lat="49.89765" lon="2.31131">
        <ele>38</ele>
        <time>2013-06-18T18:34:27Z</time>
      </trkpt>
      <trkpt lat="49.89757" lon="2.31122">
        <ele>37</ele>
        <time>2013-06-18T18:34:29Z</time>
      </trkpt>
      <trkpt lat="49.89744" lon="2.31116">
        <ele>36</ele>
        <time>2013-06-18T18:34:32Z</time>
      </trkpt>
      <trkpt lat="49.89735" lon="2.31109">
        <ele>35</ele>
        <time>2013-06-18T18:34:34Z</time>
      </trkpt>
      <trkpt lat="49.89726" lon="2.31103">
        <ele>34</ele>
        <time>2013-06-18T18:34:36Z</time>
      </trkpt>
      <trkpt lat="49.89717" lon="2.31095">
        <ele>33</ele>
        <time>2013-06-18T18:34:38Z</time>
      </trkpt>
      <trkpt lat="49.89709" lon="2.31086">
        <ele>33</ele>
        <time>2013-06-18T18:34:40Z</time>
      </trkpt>
      <trkpt lat="49.89699" lon="2.3108">
        <ele>33</ele>
        <time>2013-06-18T18:34:42Z</time>
      </trkpt>
      <trkpt lat="49.8969" lon="2.31076">
        <ele>33</ele>
        <time>2013-06-18T18:34:44Z</time>
      </trkpt>
      <trkpt lat="49.8968" lon="2.3107">
        <ele>33</ele>
        <time>2013-06-18T18:34:46Z</time>
      </trkpt>
      <trkpt lat="49.89672" lon="2.31064">
        <ele>33</ele>
        <time>2013-06-18T18:34:48Z</time>
      </trkpt>
      <trkpt lat="49.89663" lon="2.31058">
        <ele>33</ele>
        <time>2013-06-18T18:34:50Z</time>
      </trkpt>
      <trkpt lat="49.89654" lon="2.31054">
        <ele>33</ele>
        <time>2013-06-18T18:34:52Z</time>
      </trkpt>
      <trkpt lat="49.89642" lon="2.3105">
        <ele>33</ele>
        <time>2013-06-18T18:34:55Z</time>
      </trkpt>
      <trkpt lat="49.89633" lon="2.31046">
        <ele>33</ele>
        <time>2013-06-18T18:34:56Z</time>
      </trkpt>
      <trkpt lat="49.89623" lon="2.3104">
        <ele>33</ele>
        <time>2013-06-18T18:34:58Z</time>
      </trkpt>
      <trkpt lat="49.89615" lon="2.31031">
        <ele>32</ele>
        <time>2013-06-18T18:35:00Z</time>
      </trkpt>
      <trkpt lat="49.89606" lon="2.31024">
        <ele>32</ele>
        <time>2013-06-18T18:35:03Z</time>
      </trkpt>
      <trkpt lat="49.89597" lon="2.31017">
        <ele>32</ele>
        <time>2013-06-18T18:35:05Z</time>
      </trkpt>
      <trkpt lat="49.89589" lon="2.31008">
        <ele>32</ele>
        <time>2013-06-18T18:35:06Z</time>
      </trkpt>
      <trkpt lat="49.89581" lon="2.31001">
        <ele>32</ele>
        <time>2013-06-18T18:35:09Z</time>
      </trkpt>
      <trkpt lat="49.89572" lon="2.30995">
        <ele>32</ele>
        <time>2013-06-18T18:35:11Z</time>
      </trkpt>
      <trkpt lat="49.89563" lon="2.30989">
        <ele>32</ele>
        <time>2013-06-18T18:35:13Z</time>
      </trkpt>
      <trkpt lat="49.89555" lon="2.30983">
        <ele>32</ele>
        <time>2013-06-18T18:35:15Z</time>
      </trkpt>
      <trkpt lat="49.89544" lon="2.30978">
        <ele>32</ele>
        <time>2013-06-18T18:35:19Z</time>
      </trkpt>
      <trkpt lat="49.89538" lon="2.30968">
        <ele>31</ele>
        <time>2013-06-18T18:35:26Z</time>
      </trkpt>
      <trkpt lat="49.89546" lon="2.3096">
        <ele>30</ele>
        <time>2013-06-18T18:35:39Z</time>
      </trkpt>
      <trkpt lat="49.89552" lon="2.30951">
        <ele>28</ele>
        <time>2013-06-18T18:35:56Z</time>
      </trkpt>
      <trkpt lat="49.89545" lon="2.3096">
        <ele>27</ele>
        <time>2013-06-18T18:36:02Z</time>
      </trkpt>
      <trkpt lat="49.89538" lon="2.30975">
        <ele>26</ele>
        <time>2013-06-18T18:36:06Z</time>
      </trkpt>
      <trkpt lat="49.89535" lon="2.30992">
        <ele>26</ele>
        <time>2013-06-18T18:36:10Z</time>
      </trkpt>
      <trkpt lat="49.89528" lon="2.31004">
        <ele>27</ele>
        <time>2013-06-18T18:36:13Z</time>
      </trkpt>
      <trkpt lat="49.89524" lon="2.31018">
        <ele>28</ele>
        <time>2013-06-18T18:36:16Z</time>
      </trkpt>
      <trkpt lat="49.89518" lon="2.31034">
        <ele>28</ele>
        <time>2013-06-18T18:36:20Z</time>
      </trkpt>
      <trkpt lat="49.89511" lon="2.31053">
        <ele>28</ele>
        <time>2013-06-18T18:36:23Z</time>
      </trkpt>
      <trkpt lat="49.89506" lon="2.31069">
        <ele>27</ele>
        <time>2013-06-18T18:36:25Z</time>
      </trkpt>
      <trkpt lat="49.89503" lon="2.31085">
        <ele>26</ele>
        <time>2013-06-18T18:36:27Z</time>
      </trkpt>
      <trkpt lat="49.895" lon="2.31102">
        <ele>26</ele>
        <time>2013-06-18T18:36:29Z</time>
      </trkpt>
      <trkpt lat="49.89497" lon="2.31122">
        <ele>26</ele>
        <time>2013-06-18T18:36:31Z</time>
      </trkpt>
      <trkpt lat="49.89496" lon="2.3114">
        <ele>25</ele>
        <time>2013-06-18T18:36:32Z</time>
      </trkpt>
      <trkpt lat="49.89495" lon="2.31156">
        <ele>24</ele>
        <time>2013-06-18T18:36:35Z</time>
      </trkpt>
      <trkpt lat="49.89495" lon="2.31174">
        <ele>24</ele>
        <time>2013-06-18T18:36:37Z</time>
      </trkpt>
      <trkpt lat="49.89493" lon="2.31192">
        <ele>24</ele>
        <time>2013-06-18T18:36:39Z</time>
      </trkpt>
      <trkpt lat="49.89492" lon="2.31209">
        <ele>24</ele>
        <time>2013-06-18T18:36:40Z</time>
      </trkpt>
      <trkpt lat="49.89491" lon="2.31224">
        <ele>24</ele>
        <time>2013-06-18T18:36:43Z</time>
      </trkpt>
      <trkpt lat="49.89489" lon="2.3124">
        <ele>24</ele>
        <time>2013-06-18T18:36:45Z</time>
      </trkpt>
      <trkpt lat="49.89487" lon="2.31256">
        <ele>24</ele>
        <time>2013-06-18T18:36:47Z</time>
      </trkpt>
      <trkpt lat="49.89484" lon="2.31271">
        <ele>24</ele>
        <time>2013-06-18T18:36:49Z</time>
      </trkpt>
      <trkpt lat="49.89481" lon="2.31285">
        <ele>25</ele>
        <time>2013-06-18T18:36:51Z</time>
      </trkpt>
      <trkpt lat="49.89476" lon="2.31305">
        <ele>25</ele>
        <time>2013-06-18T18:36:53Z</time>
      </trkpt>
      <trkpt lat="49.89468" lon="2.3132">
        <ele>25</ele>
        <time>2013-06-18T18:36:56Z</time>
      </trkpt>
      <trkpt lat="49.89462" lon="2.31338">
        <ele>25</ele>
        <time>2013-06-18T18:37:00Z</time>
      </trkpt>
      <trkpt lat="49.89456" lon="2.31352">
        <ele>25</ele>
        <time>2013-06-18T18:37:02Z</time>
      </trkpt>
      <trkpt lat="49.8945" lon="2.31367">
        <ele>25</ele>
        <time>2013-06-18T18:37:04Z</time>
      </trkpt>
      <trkpt lat="49.89445" lon="2.31383">
        <ele>24</ele>
        <time>2013-06-18T18:37:06Z</time>
      </trkpt>
      <trkpt lat="49.89447" lon="2.314">
        <ele>24</ele>
        <time>2013-06-18T18:37:08Z</time>
      </trkpt>
      <trkpt lat="49.89444" lon="2.3142">
        <ele>24</ele>
        <time>2013-06-18T18:37:10Z</time>
      </trkpt>
      <trkpt lat="49.89443" lon="2.31438">
        <ele>24</ele>
        <time>2013-06-18T18:37:12Z</time>
      </trkpt>
      <trkpt lat="49.89442" lon="2.31456">
        <ele>24</ele>
        <time>2013-06-18T18:37:14Z</time>
      </trkpt>
      <trkpt lat="49.89442" lon="2.31475">
        <ele>24</ele>
        <time>2013-06-18T18:37:16Z</time>
      </trkpt>
      <trkpt lat="49.89441" lon="2.31494">
        <ele>23</ele>
        <time>2013-06-18T18:37:18Z</time>
      </trkpt>
      <trkpt lat="49.89441" lon="2.31513">
        <ele>22</ele>
        <time>2013-06-18T18:37:20Z</time>
      </trkpt>
      <trkpt lat="49.8944" lon="2.31533">
        <ele>22</ele>
        <time>2013-06-18T18:37:22Z</time>
      </trkpt>
      <trkpt lat="49.8944" lon="2.31549">
        <ele>21</ele>
        <time>2013-06-18T18:37:24Z</time>
      </trkpt>
      <trkpt lat="49.8944" lon="2.31567">
        <ele>21</ele>
        <time>2013-06-18T18:37:26Z</time>
      </trkpt>
      <trkpt lat="49.89439" lon="2.31583">
        <ele>21</ele>
        <time>2013-06-18T18:37:28Z</time>
      </trkpt>
      <trkpt lat="49.89439" lon="2.31601">
        <ele>21</ele>
        <time>2013-06-18T18:37:30Z</time>
      </trkpt>
      <trkpt lat="49.89436" lon="2.31618">
        <ele>21</ele>
        <time>2013-06-18T18:37:32Z</time>
      </trkpt>
      <trkpt lat="49.89436" lon="2.31633">
        <ele>21</ele>
        <time>2013-06-18T18:37:34Z</time>
      </trkpt>
      <trkpt lat="49.89436" lon="2.31653">
        <ele>21</ele>
        <time>2013-06-18T18:37:37Z</time>
      </trkpt>
      <trkpt lat="49.89437" lon="2.31667">
        <ele>21</ele>
        <time>2013-06-18T18:37:39Z</time>
      </trkpt>
      <trkpt lat="49.89437" lon="2.31682">
        <ele>21</ele>
        <time>2013-06-18T18:37:41Z</time>
      </trkpt>
      <trkpt lat="49.89435" lon="2.31699">
        <ele>22</ele>
        <time>2013-06-18T18:37:43Z</time>
      </trkpt>
      <trkpt lat="49.89433" lon="2.31718">
        <ele>22</ele>
        <time>2013-06-18T18:37:44Z</time>
      </trkpt>
      <trkpt lat="49.89431" lon="2.31732">
        <ele>22</ele>
        <time>2013-06-18T18:37:46Z</time>
      </trkpt>
      <trkpt lat="49.89429" lon="2.31747">
        <ele>22</ele>
        <time>2013-06-18T18:37:49Z</time>
      </trkpt>
      <trkpt lat="49.89424" lon="2.31766">
        <ele>23</ele>
        <time>2013-06-18T18:37:51Z</time>
      </trkpt>
      <trkpt lat="49.89419" lon="2.31782">
        <ele>23</ele>
        <time>2013-06-18T18:37:53Z</time>
      </trkpt>
      <trkpt lat="49.89415" lon="2.31797">
        <ele>24</ele>
        <time>2013-06-18T18:37:54Z</time>
      </trkpt>
      <trkpt lat="49.89412" lon="2.3182">
        <ele>25</ele>
        <time>2013-06-18T18:37:58Z</time>
      </trkpt>
      <trkpt lat="49.89411" lon="2.31835">
        <ele>25</ele>
        <time>2013-06-18T18:37:59Z</time>
      </trkpt>
      <trkpt lat="49.89406" lon="2.31852">
        <ele>25</ele>
        <time>2013-06-18T18:38:02Z</time>
      </trkpt>
      <trkpt lat="49.89407" lon="2.31868">
        <ele>25</ele>
        <time>2013-06-18T18:38:04Z</time>
      </trkpt>
      <trkpt lat="49.89409" lon="2.31885">
        <ele>25</ele>
        <time>2013-06-18T18:38:06Z</time>
      </trkpt>
      <trkpt lat="49.8941" lon="2.31902">
        <ele>25</ele>
        <time>2013-06-18T18:38:08Z</time>
      </trkpt>
      <trkpt lat="49.89411" lon="2.31918">
        <ele>25</ele>
        <time>2013-06-18T18:38:10Z</time>
      </trkpt>
      <trkpt lat="49.89414" lon="2.31933">
        <ele>25</ele>
        <time>2013-06-18T18:38:12Z</time>
      </trkpt>
      <trkpt lat="49.89417" lon="2.31949">
        <ele>25</ele>
        <time>2013-06-18T18:38:14Z</time>
      </trkpt>
      <trkpt lat="49.8942" lon="2.31965">
        <ele>25</ele>
        <time>2013-06-18T18:38:15Z</time>
      </trkpt>
      <trkpt lat="49.89422" lon="2.3198">
        <ele>24</ele>
        <time>2013-06-18T18:38:18Z</time>
      </trkpt>
      <trkpt lat="49.89423" lon="2.31995">
        <ele>24</ele>
        <time>2013-06-18T18:38:20Z</time>
      </trkpt>
      <trkpt lat="49.89422" lon="2.3201">
        <ele>24</ele>
        <time>2013-06-18T18:38:22Z</time>
      </trkpt>
      <trkpt lat="49.89421" lon="2.32024">
        <ele>23</ele>
        <time>2013-06-18T18:38:24Z</time>
      </trkpt>
      <trkpt lat="49.89419" lon="2.32038">
        <ele>23</ele>
        <time>2013-06-18T18:38:26Z</time>
      </trkpt>
      <trkpt lat="49.89417" lon="2.32051">
        <ele>23</ele>
        <time>2013-06-18T18:38:28Z</time>
      </trkpt>
      <trkpt lat="49.89414" lon="2.32065">
        <ele>24</ele>
        <time>2013-06-18T18:38:30Z</time>
      </trkpt>
      <trkpt lat="49.89412" lon="2.32086">
        <ele>24</ele>
        <time>2013-06-18T18:38:33Z</time>
      </trkpt>
      <trkpt lat="49.89409" lon="2.321">
        <ele>24</ele>
        <time>2013-06-18T18:38:35Z</time>
      </trkpt>
      <trkpt lat="49.89405" lon="2.32114">
        <ele>24</ele>
        <time>2013-06-18T18:38:37Z</time>
      </trkpt>
      <trkpt lat="49.89403" lon="2.32128">
        <ele>24</ele>
        <time>2013-06-18T18:38:39Z</time>
      </trkpt>
      <trkpt lat="49.894" lon="2.32143">
        <ele>24</ele>
        <time>2013-06-18T18:38:41Z</time>
      </trkpt>
      <trkpt lat="49.89396" lon="2.32157">
        <ele>24</ele>
        <time>2013-06-18T18:38:43Z</time>
      </trkpt>
      <trkpt lat="49.89393" lon="2.3217">
        <ele>24</ele>
        <time>2013-06-18T18:38:45Z</time>
      </trkpt>
      <trkpt lat="49.8939" lon="2.32184">
        <ele>24</ele>
        <time>2013-06-18T18:38:46Z</time>
      </trkpt>
      <trkpt lat="49.8939" lon="2.32198">
        <ele>24</ele>
        <time>2013-06-18T18:38:48Z</time>
      </trkpt>
      <trkpt lat="49.89389" lon="2.32214">
        <ele>24</ele>
        <time>2013-06-18T18:38:50Z</time>
      </trkpt>
      <trkpt lat="49.89388" lon="2.32229">
        <ele>24</ele>
        <time>2013-06-18T18:38:52Z</time>
      </trkpt>
      <trkpt lat="49.89387" lon="2.32245">
        <ele>24</ele>
        <time>2013-06-18T18:38:54Z</time>
      </trkpt>
      <trkpt lat="49.89388" lon="2.32261">
        <ele>24</ele>
        <time>2013-06-18T18:38:56Z</time>
      </trkpt>
      <trkpt lat="49.89389" lon="2.32277">
        <ele>24</ele>
        <time>2013-06-18T18:38:58Z</time>
      </trkpt>
      <trkpt lat="49.89391" lon="2.32293">
        <ele>24</ele>
        <time>2013-06-18T18:39:00Z</time>
      </trkpt>
      <trkpt lat="49.89391" lon="2.32309">
        <ele>24</ele>
        <time>2013-06-18T18:39:02Z</time>
      </trkpt>
      <trkpt lat="49.8939" lon="2.32325">
        <ele>24</ele>
        <time>2013-06-18T18:39:04Z</time>
      </trkpt>
      <trkpt lat="49.89387" lon="2.32341">
        <ele>24</ele>
        <time>2013-06-18T18:39:07Z</time>
      </trkpt>
      <trkpt lat="49.89384" lon="2.32355">
        <ele>24</ele>
        <time>2013-06-18T18:39:08Z</time>
      </trkpt>
      <trkpt lat="49.8938" lon="2.3237">
        <ele>24</ele>
        <time>2013-06-18T18:39:10Z</time>
      </trkpt>
      <trkpt lat="49.89377" lon="2.32385">
        <ele>24</ele>
        <time>2013-06-18T18:39:13Z</time>
      </trkpt>
      <trkpt lat="49.89374" lon="2.32401">
        <ele>24</ele>
        <time>2013-06-18T18:39:15Z</time>
      </trkpt>
      <trkpt lat="49.89371" lon="2.32417">
        <ele>24</ele>
        <time>2013-06-18T18:39:17Z</time>
      </trkpt>
      <trkpt lat="49.89368" lon="2.32434">
        <ele>24</ele>
        <time>2013-06-18T18:39:19Z</time>
      </trkpt>
      <trkpt lat="49.89365" lon="2.3245">
        <ele>24</ele>
        <time>2013-06-18T18:39:21Z</time>
      </trkpt>
      <trkpt lat="49.89363" lon="2.32464">
        <ele>24</ele>
        <time>2013-06-18T18:39:22Z</time>
      </trkpt>
      <trkpt lat="49.89361" lon="2.3248">
        <ele>24</ele>
        <time>2013-06-18T18:39:24Z</time>
      </trkpt>
      <trkpt lat="49.89358" lon="2.32495">
        <ele>24</ele>
        <time>2013-06-18T18:39:27Z</time>
      </trkpt>
      <trkpt lat="49.89355" lon="2.32511">
        <ele>24</ele>
        <time>2013-06-18T18:39:29Z</time>
      </trkpt>
      <trkpt lat="49.89354" lon="2.32526">
        <ele>24</ele>
        <time>2013-06-18T18:39:30Z</time>
      </trkpt>
      <trkpt lat="49.89351" lon="2.32542">
        <ele>24</ele>
        <time>2013-06-18T18:39:33Z</time>
      </trkpt>
      <trkpt lat="49.89349" lon="2.32558">
        <ele>24</ele>
        <time>2013-06-18T18:39:35Z</time>
      </trkpt>
      <trkpt lat="49.89347" lon="2.32575">
        <ele>24</ele>
        <time>2013-06-18T18:39:37Z</time>
      </trkpt>
      <trkpt lat="49.89344" lon="2.32593">
        <ele>24</ele>
        <time>2013-06-18T18:39:39Z</time>
      </trkpt>
      <trkpt lat="49.89335" lon="2.32604">
        <ele>24</ele>
        <time>2013-06-18T18:39:41Z</time>
      </trkpt>
      <trkpt lat="49.8933" lon="2.3262">
        <ele>24</ele>
        <time>2013-06-18T18:39:43Z</time>
      </trkpt>
      <trkpt lat="49.89326" lon="2.32635">
        <ele>24</ele>
        <time>2013-06-18T18:39:45Z</time>
      </trkpt>
      <trkpt lat="49.89327" lon="2.32654">
        <ele>24</ele>
        <time>2013-06-18T18:39:47Z</time>
      </trkpt>
      <trkpt lat="49.89322" lon="2.32667">
        <ele>24</ele>
        <time>2013-06-18T18:39:49Z</time>
      </trkpt>
      <trkpt lat="49.89315" lon="2.32682">
        <ele>24</ele>
        <time>2013-06-18T18:39:51Z</time>
      </trkpt>
      <trkpt lat="49.89309" lon="2.32695">
        <ele>24</ele>
        <time>2013-06-18T18:39:53Z</time>
      </trkpt>
      <trkpt lat="49.89297" lon="2.32703">
        <ele>24</ele>
        <time>2013-06-18T18:39:55Z</time>
      </trkpt>
      <trkpt lat="49.8929" lon="2.32716">
        <ele>24</ele>
        <time>2013-06-18T18:39:57Z</time>
      </trkpt>
      <trkpt lat="49.89284" lon="2.3273">
        <ele>24</ele>
        <time>2013-06-18T18:39:59Z</time>
      </trkpt>
      <trkpt lat="49.89279" lon="2.32744">
        <ele>24</ele>
        <time>2013-06-18T18:40:01Z</time>
      </trkpt>
      <trkpt lat="49.89278" lon="2.32761">
        <ele>24</ele>
        <time>2013-06-18T18:40:03Z</time>
      </trkpt>
      <trkpt lat="49.89272" lon="2.32773">
        <ele>24</ele>
        <time>2013-06-18T18:40:05Z</time>
      </trkpt>
      <trkpt lat="49.89265" lon="2.32783">
        <ele>24</ele>
        <time>2013-06-18T18:40:07Z</time>
      </trkpt>
      <trkpt lat="49.8926" lon="2.32794">
        <ele>24</ele>
        <time>2013-06-18T18:40:08Z</time>
      </trkpt>
      <trkpt lat="49.89254" lon="2.32805">
        <ele>24</ele>
        <time>2013-06-18T18:40:10Z</time>
      </trkpt>
      <trkpt lat="49.89248" lon="2.32816">
        <ele>24</ele>
        <time>2013-06-18T18:40:12Z</time>
      </trkpt>
      <trkpt lat="49.89243" lon="2.32828">
        <ele>24</ele>
        <time>2013-06-18T18:40:15Z</time>
      </trkpt>
      <trkpt lat="49.89238" lon="2.32841">
        <ele>24</ele>
        <time>2013-06-18T18:40:16Z</time>
      </trkpt>
      <trkpt lat="49.89232" lon="2.32853">
        <ele>24</ele>
        <time>2013-06-18T18:40:18Z</time>
      </trkpt>
      <trkpt lat="49.89225" lon="2.32864">
        <ele>24</ele>
        <time>2013-06-18T18:40:21Z</time>
      </trkpt>
      <trkpt lat="49.89218" lon="2.32876">
        <ele>24</ele>
        <time>2013-06-18T18:40:23Z</time>
      </trkpt>
      <trkpt lat="49.89211" lon="2.3289">
        <ele>23</ele>
        <time>2013-06-18T18:40:25Z</time>
      </trkpt>
      <trkpt lat="49.89205" lon="2.32903">
        <ele>23</ele>
        <time>2013-06-18T18:40:27Z</time>
      </trkpt>
      <trkpt lat="49.89199" lon="2.32916">
        <ele>23</ele>
        <time>2013-06-18T18:40:29Z</time>
      </trkpt>
      <trkpt lat="49.89193" lon="2.32929">
        <ele>23</ele>
        <time>2013-06-18T18:40:31Z</time>
      </trkpt>
      <trkpt lat="49.89188" lon="2.32943">
        <ele>23</ele>
        <time>2013-06-18T18:40:33Z</time>
      </trkpt>
      <trkpt lat="49.89183" lon="2.32957">
        <ele>22</ele>
        <time>2013-06-18T18:40:35Z</time>
      </trkpt>
      <trkpt lat="49.89179" lon="2.32971">
        <ele>22</ele>
        <time>2013-06-18T18:40:37Z</time>
      </trkpt>
      <trkpt lat="49.89174" lon="2.32985">
        <ele>22</ele>
        <time>2013-06-18T18:40:39Z</time>
      </trkpt>
      <trkpt lat="49.8917" lon="2.33">
        <ele>21</ele>
        <time>2013-06-18T18:40:41Z</time>
      </trkpt>
      <trkpt lat="49.89166" lon="2.33014">
        <ele>21</ele>
        <time>2013-06-18T18:40:43Z</time>
      </trkpt>
      <trkpt lat="49.89157" lon="2.33026">
        <ele>21</ele>
        <time>2013-06-18T18:40:45Z</time>
      </trkpt>
      <trkpt lat="49.89151" lon="2.33039">
        <ele>22</ele>
        <time>2013-06-18T18:40:46Z</time>
      </trkpt>
      <trkpt lat="49.89145" lon="2.33052">
        <ele>22</ele>
        <time>2013-06-18T18:40:48Z</time>
      </trkpt>
      <trkpt lat="49.89139" lon="2.33066">
        <ele>22</ele>
        <time>2013-06-18T18:40:50Z</time>
      </trkpt>
      <trkpt lat="49.89136" lon="2.33082">
        <ele>23</ele>
        <time>2013-06-18T18:40:53Z</time>
      </trkpt>
      <trkpt lat="49.89131" lon="2.33098">
        <ele>23</ele>
        <time>2013-06-18T18:40:55Z</time>
      </trkpt>
      <trkpt lat="49.89127" lon="2.33114">
        <ele>23</ele>
        <time>2013-06-18T18:40:57Z</time>
      </trkpt>
      <trkpt lat="49.89124" lon="2.33131">
        <ele>23</ele>
        <time>2013-06-18T18:40:59Z</time>
      </trkpt>
      <trkpt lat="49.89122" lon="2.33147">
        <ele>23</ele>
        <time>2013-06-18T18:41:01Z</time>
      </trkpt>
      <trkpt lat="49.8912" lon="2.33164">
        <ele>23</ele>
        <time>2013-06-18T18:41:03Z</time>
      </trkpt>
      <trkpt lat="49.89117" lon="2.3318">
        <ele>23</ele>
        <time>2013-06-18T18:41:05Z</time>
      </trkpt>
      <trkpt lat="49.89116" lon="2.33196">
        <ele>23</ele>
        <time>2013-06-18T18:41:07Z</time>
      </trkpt>
      <trkpt lat="49.89115" lon="2.33211">
        <ele>23</ele>
        <time>2013-06-18T18:41:09Z</time>
      </trkpt>
      <trkpt lat="49.89114" lon="2.33231">
        <ele>23</ele>
        <time>2013-06-18T18:41:12Z</time>
      </trkpt>
      <trkpt lat="49.89116" lon="2.3325">
        <ele>23</ele>
        <time>2013-06-18T18:41:15Z</time>
      </trkpt>
      <trkpt lat="49.89116" lon="2.33267">
        <ele>23</ele>
        <time>2013-06-18T18:41:18Z</time>
      </trkpt>
      <trkpt lat="49.89116" lon="2.33289">
        <ele>23</ele>
        <time>2013-06-18T18:41:21Z</time>
      </trkpt>
      <trkpt lat="49.89116" lon="2.33305">
        <ele>23</ele>
        <time>2013-06-18T18:41:23Z</time>
      </trkpt>
      <trkpt lat="49.89116" lon="2.33324">
        <ele>23</ele>
        <time>2013-06-18T18:41:25Z</time>
      </trkpt>
      <trkpt lat="49.89116" lon="2.33341">
        <ele>23</ele>
        <time>2013-06-18T18:41:27Z</time>
      </trkpt>
      <trkpt lat="49.89117" lon="2.3336">
        <ele>23</ele>
        <time>2013-06-18T18:41:29Z</time>
      </trkpt>
      <trkpt lat="49.89117" lon="2.33378">
        <ele>23</ele>
        <time>2013-06-18T18:41:31Z</time>
      </trkpt>
      <trkpt lat="49.89119" lon="2.33397">
        <ele>23</ele>
        <time>2013-06-18T18:41:33Z</time>
      </trkpt>
      <trkpt lat="49.89111" lon="2.33414">
        <ele>23</ele>
        <time>2013-06-18T18:41:34Z</time>
      </trkpt>
      <trkpt lat="49.89111" lon="2.33432">
        <ele>23</ele>
        <time>2013-06-18T18:41:36Z</time>
      </trkpt>
      <trkpt lat="49.89109" lon="2.33448">
        <ele>23</ele>
        <time>2013-06-18T18:41:38Z</time>
      </trkpt>
      <trkpt lat="49.89105" lon="2.33467">
        <ele>23</ele>
        <time>2013-06-18T18:41:41Z</time>
      </trkpt>
      <trkpt lat="49.891" lon="2.33484">
        <ele>23</ele>
        <time>2013-06-18T18:41:43Z</time>
      </trkpt>
      <trkpt lat="49.89091" lon="2.33497">
        <ele>23</ele>
        <time>2013-06-18T18:41:45Z</time>
      </trkpt>
      <trkpt lat="49.89083" lon="2.33508">
        <ele>23</ele>
        <time>2013-06-18T18:41:47Z</time>
      </trkpt>
      <trkpt lat="49.89074" lon="2.33519">
        <ele>23</ele>
        <time>2013-06-18T18:41:49Z</time>
      </trkpt>
      <trkpt lat="49.89066" lon="2.33528">
        <ele>23</ele>
        <time>2013-06-18T18:41:50Z</time>
      </trkpt>
      <trkpt lat="49.89059" lon="2.33536">
        <ele>23</ele>
        <time>2013-06-18T18:41:53Z</time>
      </trkpt>
      <trkpt lat="49.8905" lon="2.33544">
        <ele>23</ele>
        <time>2013-06-18T18:41:55Z</time>
      </trkpt>
      <trkpt lat="49.89041" lon="2.33552">
        <ele>23</ele>
        <time>2013-06-18T18:41:56Z</time>
      </trkpt>
      <trkpt lat="49.8903" lon="2.33559">
        <ele>23</ele>
        <time>2013-06-18T18:41:58Z</time>
      </trkpt>
      <trkpt lat="49.89013" lon="2.33566">
        <ele>23</ele>
        <time>2013-06-18T18:42:01Z</time>
      </trkpt>
      <trkpt lat="49.89" lon="2.33565">
        <ele>23</ele>
        <time>2013-06-18T18:42:02Z</time>
      </trkpt>
      <trkpt lat="49.8899" lon="2.33569">
        <ele>23</ele>
        <time>2013-06-18T18:42:04Z</time>
      </trkpt>
      <trkpt lat="49.88977" lon="2.33574">
        <ele>23</ele>
        <time>2013-06-18T18:42:06Z</time>
      </trkpt>
      <trkpt lat="49.88965" lon="2.33578">
        <ele>23</ele>
        <time>2013-06-18T18:42:08Z</time>
      </trkpt>
      <trkpt lat="49.88951" lon="2.33582">
        <ele>24</ele>
        <time>2013-06-18T18:42:10Z</time>
      </trkpt>
      <trkpt lat="49.88939" lon="2.33584">
        <ele>25</ele>
        <time>2013-06-18T18:42:12Z</time>
      </trkpt>
      <trkpt lat="49.88927" lon="2.33586">
        <ele>25</ele>
        <time>2013-06-18T18:42:15Z</time>
      </trkpt>
      <trkpt lat="49.88916" lon="2.33588">
        <ele>25</ele>
        <time>2013-06-18T18:42:16Z</time>
      </trkpt>
      <trkpt lat="49.88904" lon="2.33599">
        <ele>25</ele>
        <time>2013-06-18T18:42:18Z</time>
      </trkpt>
      <trkpt lat="49.88891" lon="2.33599">
        <ele>25</ele>
        <time>2013-06-18T18:42:21Z</time>
      </trkpt>
      <trkpt lat="49.88879" lon="2.33601">
        <ele>25</ele>
        <time>2013-06-18T18:42:23Z</time>
      </trkpt>
      <trkpt lat="49.88867" lon="2.336">
        <ele>25</ele>
        <time>2013-06-18T18:42:25Z</time>
      </trkpt>
      <trkpt lat="49.88855" lon="2.33598">
        <ele>25</ele>
        <time>2013-06-18T18:42:26Z</time>
      </trkpt>
      <trkpt lat="49.88844" lon="2.33593">
        <ele>25</ele>
        <time>2013-06-18T18:42:29Z</time>
      </trkpt>
      <trkpt lat="49.88833" lon="2.33587">
        <ele>24</ele>
        <time>2013-06-18T18:42:31Z</time>
      </trkpt>
      <trkpt lat="49.88821" lon="2.33582">
        <ele>24</ele>
        <time>2013-06-18T18:42:33Z</time>
      </trkpt>
      <trkpt lat="49.88809" lon="2.33583">
        <ele>24</ele>
        <time>2013-06-18T18:42:35Z</time>
      </trkpt>
      <trkpt lat="49.88799" lon="2.3358">
        <ele>24</ele>
        <time>2013-06-18T18:42:37Z</time>
      </trkpt>
      <trkpt lat="49.88788" lon="2.33579">
        <ele>24</ele>
        <time>2013-06-18T18:42:39Z</time>
      </trkpt>
      <trkpt lat="49.88776" lon="2.33578">
        <ele>24</ele>
        <time>2013-06-18T18:42:41Z</time>
      </trkpt>
      <trkpt lat="49.88765" lon="2.33579">
        <ele>24</ele>
        <time>2013-06-18T18:42:43Z</time>
      </trkpt>
      <trkpt lat="49.88756" lon="2.33585">
        <ele>24</ele>
        <time>2013-06-18T18:42:45Z</time>
      </trkpt>
      <trkpt lat="49.88747" lon="2.33595">
        <ele>24</ele>
        <time>2013-06-18T18:42:47Z</time>
      </trkpt>
      <trkpt lat="49.88739" lon="2.33606">
        <ele>24</ele>
        <time>2013-06-18T18:42:49Z</time>
      </trkpt>
      <trkpt lat="49.88731" lon="2.33623">
        <ele>24</ele>
        <time>2013-06-18T18:42:51Z</time>
      </trkpt>
      <trkpt lat="49.8872" lon="2.33627">
        <ele>24</ele>
        <time>2013-06-18T18:42:53Z</time>
      </trkpt>
      <trkpt lat="49.88712" lon="2.33636">
        <ele>24</ele>
        <time>2013-06-18T18:42:55Z</time>
      </trkpt>
      <trkpt lat="49.88705" lon="2.33645">
        <ele>24</ele>
        <time>2013-06-18T18:42:57Z</time>
      </trkpt>
      <trkpt lat="49.88693" lon="2.33657">
        <ele>23</ele>
        <time>2013-06-18T18:43:00Z</time>
      </trkpt>
      <trkpt lat="49.88695" lon="2.33672">
        <ele>23</ele>
        <time>2013-06-18T18:43:01Z</time>
      </trkpt>
      <trkpt lat="49.88685" lon="2.33679">
        <ele>23</ele>
        <time>2013-06-18T18:43:03Z</time>
      </trkpt>
      <trkpt lat="49.88675" lon="2.33683">
        <ele>23</ele>
        <time>2013-06-18T18:43:06Z</time>
      </trkpt>
      <trkpt lat="49.88667" lon="2.33689">
        <ele>23</ele>
        <time>2013-06-18T18:43:08Z</time>
      </trkpt>
      <trkpt lat="49.88658" lon="2.33698">
        <ele>23</ele>
        <time>2013-06-18T18:43:10Z</time>
      </trkpt>
      <trkpt lat="49.8865" lon="2.33709">
        <ele>23</ele>
        <time>2013-06-18T18:43:11Z</time>
      </trkpt>
      <trkpt lat="49.88641" lon="2.33722">
        <ele>23</ele>
        <time>2013-06-18T18:43:14Z</time>
      </trkpt>
      <trkpt lat="49.88631" lon="2.33731">
        <ele>23</ele>
        <time>2013-06-18T18:43:16Z</time>
      </trkpt>
      <trkpt lat="49.88621" lon="2.33738">
        <ele>23</ele>
        <time>2013-06-18T18:43:18Z</time>
      </trkpt>
      <trkpt lat="49.88611" lon="2.33746">
        <ele>23</ele>
        <time>2013-06-18T18:43:20Z</time>
      </trkpt>
      <trkpt lat="49.88601" lon="2.33756">
        <ele>23</ele>
        <time>2013-06-18T18:43:22Z</time>
      </trkpt>
      <trkpt lat="49.88593" lon="2.33765">
        <ele>22</ele>
        <time>2013-06-18T18:43:24Z</time>
      </trkpt>
      <trkpt lat="49.88584" lon="2.33773">
        <ele>22</ele>
        <time>2013-06-18T18:43:26Z</time>
      </trkpt>
      <trkpt lat="49.88571" lon="2.3377">
        <ele>22</ele>
        <time>2013-06-18T18:43:28Z</time>
      </trkpt>
      <trkpt lat="49.88562" lon="2.33778">
        <ele>21</ele>
        <time>2013-06-18T18:43:29Z</time>
      </trkpt>
      <trkpt lat="49.88552" lon="2.33795">
        <ele>21</ele>
        <time>2013-06-18T18:43:32Z</time>
      </trkpt>
      <trkpt lat="49.8854" lon="2.33803">
        <ele>20</ele>
        <time>2013-06-18T18:43:33Z</time>
      </trkpt>
      <trkpt lat="49.88529" lon="2.33811">
        <ele>19</ele>
        <time>2013-06-18T18:43:36Z</time>
      </trkpt>
      <trkpt lat="49.8852" lon="2.33819">
        <ele>18</ele>
        <time>2013-06-18T18:43:37Z</time>
      </trkpt>
      <trkpt lat="49.8851" lon="2.33828">
        <ele>18</ele>
        <time>2013-06-18T18:43:39Z</time>
      </trkpt>
      <trkpt lat="49.88501" lon="2.3384">
        <ele>18</ele>
        <time>2013-06-18T18:43:42Z</time>
      </trkpt>
      <trkpt lat="49.88491" lon="2.33853">
        <ele>18</ele>
        <time>2013-06-18T18:43:44Z</time>
      </trkpt>
      <trkpt lat="49.8848" lon="2.33868">
        <ele>18</ele>
        <time>2013-06-18T18:43:46Z</time>
      </trkpt>
      <trkpt lat="49.88471" lon="2.3388">
        <ele>18</ele>
        <time>2013-06-18T18:43:48Z</time>
      </trkpt>
      <trkpt lat="49.88462" lon="2.33891">
        <ele>18</ele>
        <time>2013-06-18T18:43:50Z</time>
      </trkpt>
      <trkpt lat="49.88457" lon="2.33909">
        <ele>19</ele>
        <time>2013-06-18T18:43:52Z</time>
      </trkpt>
      <trkpt lat="49.88449" lon="2.3392">
        <ele>20</ele>
        <time>2013-06-18T18:43:54Z</time>
      </trkpt>
      <trkpt lat="49.88439" lon="2.3393">
        <ele>20</ele>
        <time>2013-06-18T18:43:56Z</time>
      </trkpt>
      <trkpt lat="49.88429" lon="2.33941">
        <ele>20</ele>
        <time>2013-06-18T18:43:58Z</time>
      </trkpt>
      <trkpt lat="49.88419" lon="2.33951">
        <ele>20</ele>
        <time>2013-06-18T18:44:00Z</time>
      </trkpt>
      <trkpt lat="49.8841" lon="2.33963">
        <ele>20</ele>
        <time>2013-06-18T18:44:02Z</time>
      </trkpt>
      <trkpt lat="49.884" lon="2.33974">
        <ele>20</ele>
        <time>2013-06-18T18:44:04Z</time>
      </trkpt>
      <trkpt lat="49.88391" lon="2.33986">
        <ele>20</ele>
        <time>2013-06-18T18:44:06Z</time>
      </trkpt>
      <trkpt lat="49.88383" lon="2.34">
        <ele>21</ele>
        <time>2013-06-18T18:44:08Z</time>
      </trkpt>
      <trkpt lat="49.88376" lon="2.34014">
        <ele>21</ele>
        <time>2013-06-18T18:44:09Z</time>
      </trkpt>
      <trkpt lat="49.88369" lon="2.34029">
        <ele>22</ele>
        <time>2013-06-18T18:44:11Z</time>
      </trkpt>
      <trkpt lat="49.88367" lon="2.34047">
        <ele>22</ele>
        <time>2013-06-18T18:44:13Z</time>
      </trkpt>
      <trkpt lat="49.88365" lon="2.34066">
        <ele>22</ele>
        <time>2013-06-18T18:44:15Z</time>
      </trkpt>
      <trkpt lat="49.88361" lon="2.34082">
        <ele>22</ele>
        <time>2013-06-18T18:44:18Z</time>
      </trkpt>
      <trkpt lat="49.88358" lon="2.34099">
        <ele>22</ele>
        <time>2013-06-18T18:44:19Z</time>
      </trkpt>
      <trkpt lat="49.88355" lon="2.34116">
        <ele>22</ele>
        <time>2013-06-18T18:44:21Z</time>
      </trkpt>
      <trkpt lat="49.88351" lon="2.34132">
        <ele>22</ele>
        <time>2013-06-18T18:44:23Z</time>
      </trkpt>
      <trkpt lat="49.88345" lon="2.34148">
        <ele>22</ele>
        <time>2013-06-18T18:44:26Z</time>
      </trkpt>
      <trkpt lat="49.88341" lon="2.34165">
        <ele>22</ele>
        <time>2013-06-18T18:44:28Z</time>
      </trkpt>
      <trkpt lat="49.88337" lon="2.34181">
        <ele>23</ele>
        <time>2013-06-18T18:44:30Z</time>
      </trkpt>
      <trkpt lat="49.88334" lon="2.34198">
        <ele>23</ele>
        <time>2013-06-18T18:44:32Z</time>
      </trkpt>
      <trkpt lat="49.8833" lon="2.34214">
        <ele>23</ele>
        <time>2013-06-18T18:44:34Z</time>
      </trkpt>
      <trkpt lat="49.88327" lon="2.3423">
        <ele>24</ele>
        <time>2013-06-18T18:44:36Z</time>
      </trkpt>
      <trkpt lat="49.88323" lon="2.34246">
        <ele>24</ele>
        <time>2013-06-18T18:44:38Z</time>
      </trkpt>
      <trkpt lat="49.8832" lon="2.34261">
        <ele>24</ele>
        <time>2013-06-18T18:44:40Z</time>
      </trkpt>
      <trkpt lat="49.88318" lon="2.34275">
        <ele>25</ele>
        <time>2013-06-18T18:44:42Z</time>
      </trkpt>
      <trkpt lat="49.88315" lon="2.34291">
        <ele>25</ele>
        <time>2013-06-18T18:44:44Z</time>
      </trkpt>
      <trkpt lat="49.88313" lon="2.34308">
        <ele>25</ele>
        <time>2013-06-18T18:44:46Z</time>
      </trkpt>
      <trkpt lat="49.88305" lon="2.34322">
        <ele>25</ele>
        <time>2013-06-18T18:44:47Z</time>
      </trkpt>
      <trkpt lat="49.88311" lon="2.34332">
        <ele>25</ele>
        <time>2013-06-18T18:44:48Z</time>
      </trkpt>
      <trkpt lat="49.88308" lon="2.34352">
        <ele>25</ele>
        <time>2013-06-18T18:44:51Z</time>
      </trkpt>
      <trkpt lat="49.88306" lon="2.3437">
        <ele>25</ele>
        <time>2013-06-18T18:44:52Z</time>
      </trkpt>
      <trkpt lat="49.88304" lon="2.34387">
        <ele>24</ele>
        <time>2013-06-18T18:44:54Z</time>
      </trkpt>
      <trkpt lat="49.88298" lon="2.34405">
        <ele>23</ele>
        <time>2013-06-18T18:44:56Z</time>
      </trkpt>
      <trkpt lat="49.88294" lon="2.34423">
        <ele>23</ele>
        <time>2013-06-18T18:44:58Z</time>
      </trkpt>
      <trkpt lat="49.88291" lon="2.3444">
        <ele>23</ele>
        <time>2013-06-18T18:45:01Z</time>
      </trkpt>
      <trkpt lat="49.88289" lon="2.34457">
        <ele>23</ele>
        <time>2013-06-18T18:45:03Z</time>
      </trkpt>
      <trkpt lat="49.8829" lon="2.34476">
        <ele>23</ele>
        <time>2013-06-18T18:45:05Z</time>
      </trkpt>
      <trkpt lat="49.8829" lon="2.34493">
        <ele>23</ele>
        <time>2013-06-18T18:45:07Z</time>
      </trkpt>
      <trkpt lat="49.88289" lon="2.34512">
        <ele>23</ele>
        <time>2013-06-18T18:45:09Z</time>
      </trkpt>
      <trkpt lat="49.88288" lon="2.34532">
        <ele>23</ele>
        <time>2013-06-18T18:45:10Z</time>
      </trkpt>
      <trkpt lat="49.88288" lon="2.34549">
        <ele>23</ele>
        <time>2013-06-18T18:45:12Z</time>
      </trkpt>
      <trkpt lat="49.88288" lon="2.34568">
        <ele>23</ele>
        <time>2013-06-18T18:45:14Z</time>
      </trkpt>
      <trkpt lat="49.88289" lon="2.34585">
        <ele>23</ele>
        <time>2013-06-18T18:45:17Z</time>
      </trkpt>
      <trkpt lat="49.88292" lon="2.34603">
        <ele>23</ele>
        <time>2013-06-18T18:45:18Z</time>
      </trkpt>
      <trkpt lat="49.88297" lon="2.3462">
        <ele>23</ele>
        <time>2013-06-18T18:45:20Z</time>
      </trkpt>
      <trkpt lat="49.88299" lon="2.34637">
        <ele>23</ele>
        <time>2013-06-18T18:45:23Z</time>
      </trkpt>
      <trkpt lat="49.88306" lon="2.34651">
        <ele>23</ele>
        <time>2013-06-18T18:45:25Z</time>
      </trkpt>
      <trkpt lat="49.88311" lon="2.34668">
        <ele>23</ele>
        <time>2013-06-18T18:45:27Z</time>
      </trkpt>
      <trkpt lat="49.88315" lon="2.34685">
        <ele>23</ele>
        <time>2013-06-18T18:45:29Z</time>
      </trkpt>
      <trkpt lat="49.88317" lon="2.34704">
        <ele>23</ele>
        <time>2013-06-18T18:45:31Z</time>
      </trkpt>
      <trkpt lat="49.88317" lon="2.34723">
        <ele>23</ele>
        <time>2013-06-18T18:45:33Z</time>
      </trkpt>
      <trkpt lat="49.88316" lon="2.34742">
        <ele>23</ele>
        <time>2013-06-18T18:45:35Z</time>
      </trkpt>
      <trkpt lat="49.88321" lon="2.34755">
        <ele>22</ele>
        <time>2013-06-18T18:45:37Z</time>
      </trkpt>
      <trkpt lat="49.88328" lon="2.34771">
        <ele>22</ele>
        <time>2013-06-18T18:45:39Z</time>
      </trkpt>
      <trkpt lat="49.88332" lon="2.3479">
        <ele>22</ele>
        <time>2013-06-18T18:45:41Z</time>
      </trkpt>
      <trkpt lat="49.88339" lon="2.34804">
        <ele>22</ele>
        <time>2013-06-18T18:45:43Z</time>
      </trkpt>
      <trkpt lat="49.88347" lon="2.34817">
        <ele>22</ele>
        <time>2013-06-18T18:45:45Z</time>
      </trkpt>
      <trkpt lat="49.88356" lon="2.3483">
        <ele>22</ele>
        <time>2013-06-18T18:45:47Z</time>
      </trkpt>
      <trkpt lat="49.88365" lon="2.34841">
        <ele>22</ele>
        <time>2013-06-18T18:45:48Z</time>
      </trkpt>
      <trkpt lat="49.88374" lon="2.34851">
        <ele>23</ele>
        <time>2013-06-18T18:45:50Z</time>
      </trkpt>
      <trkpt lat="49.88383" lon="2.34858">
        <ele>23</ele>
        <time>2013-06-18T18:45:53Z</time>
      </trkpt>
      <trkpt lat="49.88393" lon="2.3486">
        <ele>24</ele>
        <time>2013-06-18T18:45:54Z</time>
      </trkpt>
      <trkpt lat="49.88406" lon="2.34865">
        <ele>24</ele>
        <time>2013-06-18T18:45:57Z</time>
      </trkpt>
      <trkpt lat="49.88415" lon="2.34875">
        <ele>24</ele>
        <time>2013-06-18T18:46:00Z</time>
      </trkpt>
      <trkpt lat="49.88424" lon="2.34887">
        <ele>24</ele>
        <time>2013-06-18T18:46:02Z</time>
      </trkpt>
      <trkpt lat="49.88431" lon="2.34899">
        <ele>24</ele>
        <time>2013-06-18T18:46:04Z</time>
      </trkpt>
      <trkpt lat="49.88439" lon="2.34918">
        <ele>24</ele>
        <time>2013-06-18T18:46:06Z</time>
      </trkpt>
      <trkpt lat="49.88444" lon="2.34933">
        <ele>24</ele>
        <time>2013-06-18T18:46:08Z</time>
      </trkpt>
      <trkpt lat="49.8845" lon="2.34949">
        <ele>24</ele>
        <time>2013-06-18T18:46:10Z</time>
      </trkpt>
      <trkpt lat="49.88455" lon="2.34966">
        <ele>24</ele>
        <time>2013-06-18T18:46:12Z</time>
      </trkpt>
      <trkpt lat="49.8846" lon="2.34984">
        <ele>24</ele>
        <time>2013-06-18T18:46:14Z</time>
      </trkpt>
      <trkpt lat="49.88465" lon="2.35001">
        <ele>24</ele>
        <time>2013-06-18T18:46:16Z</time>
      </trkpt>
      <trkpt lat="49.88469" lon="2.35016">
        <ele>24</ele>
        <time>2013-06-18T18:46:18Z</time>
      </trkpt>
      <trkpt lat="49.88473" lon="2.35029">
        <ele>24</ele>
        <time>2013-06-18T18:46:20Z</time>
      </trkpt>
      <trkpt lat="49.88478" lon="2.35045">
        <ele>24</ele>
        <time>2013-06-18T18:46:24Z</time>
      </trkpt>
      <trkpt lat="49.88473" lon="2.35031">
        <ele>24</ele>
        <time>2013-06-18T18:46:43Z</time>
      </trkpt>
      <trkpt lat="49.88468" lon="2.35012">
        <ele>24</ele>
        <time>2013-06-18T18:46:45Z</time>
      </trkpt>
      <trkpt lat="49.88463" lon="2.34993">
        <ele>24</ele>
        <time>2013-06-18T18:46:47Z</time>
      </trkpt>
      <trkpt lat="49.88459" lon="2.34973">
        <ele>24</ele>
        <time>2013-06-18T18:46:49Z</time>
      </trkpt>
      <trkpt lat="49.88454" lon="2.34955">
        <ele>24</ele>
        <time>2013-06-18T18:46:51Z</time>
      </trkpt>
      <trkpt lat="49.88449" lon="2.34937">
        <ele>24</ele>
        <time>2013-06-18T18:46:53Z</time>
      </trkpt>
      <trkpt lat="49.88443" lon="2.34921">
        <ele>24</ele>
        <time>2013-06-18T18:46:55Z</time>
      </trkpt>
      <trkpt lat="49.88436" lon="2.34909">
        <ele>24</ele>
        <time>2013-06-18T18:46:57Z</time>
      </trkpt>
      <trkpt lat="49.88429" lon="2.34897">
        <ele>24</ele>
        <time>2013-06-18T18:46:59Z</time>
      </trkpt>
      <trkpt lat="49.88422" lon="2.34885">
        <ele>24</ele>
        <time>2013-06-18T18:47:01Z</time>
      </trkpt>
      <trkpt lat="49.88413" lon="2.34874">
        <ele>25</ele>
        <time>2013-06-18T18:47:03Z</time>
      </trkpt>
      <trkpt lat="49.88404" lon="2.34865">
        <ele>26</ele>
        <time>2013-06-18T18:47:05Z</time>
      </trkpt>
      <trkpt lat="49.88396" lon="2.3486">
        <ele>26</ele>
        <time>2013-06-18T18:47:07Z</time>
      </trkpt>
      <trkpt lat="49.88386" lon="2.34855">
        <ele>27</ele>
        <time>2013-06-18T18:47:08Z</time>
      </trkpt>
      <trkpt lat="49.88376" lon="2.34849">
        <ele>27</ele>
        <time>2013-06-18T18:47:11Z</time>
      </trkpt>
      <trkpt lat="49.88365" lon="2.34842">
        <ele>27</ele>
        <time>2013-06-18T18:47:13Z</time>
      </trkpt>
      <trkpt lat="49.88355" lon="2.34832">
        <ele>27</ele>
        <time>2013-06-18T18:47:15Z</time>
      </trkpt>
      <trkpt lat="49.88347" lon="2.34821">
        <ele>28</ele>
        <time>2013-06-18T18:47:17Z</time>
      </trkpt>
      <trkpt lat="49.8834" lon="2.34809">
        <ele>28</ele>
        <time>2013-06-18T18:47:19Z</time>
      </trkpt>
      <trkpt lat="49.88333" lon="2.34796">
        <ele>28</ele>
        <time>2013-06-18T18:47:21Z</time>
      </trkpt>
      <trkpt lat="49.88327" lon="2.34783">
        <ele>29</ele>
        <time>2013-06-18T18:47:22Z</time>
      </trkpt>
      <trkpt lat="49.88321" lon="2.34769">
        <ele>29</ele>
        <time>2013-06-18T18:47:25Z</time>
      </trkpt>
      <trkpt lat="49.88316" lon="2.34755">
        <ele>30</ele>
        <time>2013-06-18T18:47:27Z</time>
      </trkpt>
      <trkpt lat="49.88314" lon="2.34738">
        <ele>30</ele>
        <time>2013-06-18T18:47:29Z</time>
      </trkpt>
      <trkpt lat="49.88314" lon="2.3472">
        <ele>30</ele>
        <time>2013-06-18T18:47:31Z</time>
      </trkpt>
      <trkpt lat="49.88315" lon="2.34701">
        <ele>30</ele>
        <time>2013-06-18T18:47:33Z</time>
      </trkpt>
      <trkpt lat="49.88312" lon="2.34684">
        <ele>30</ele>
        <time>2013-06-18T18:47:35Z</time>
      </trkpt>
      <trkpt lat="49.88308" lon="2.34668">
        <ele>30</ele>
        <time>2013-06-18T18:47:37Z</time>
      </trkpt>
      <trkpt lat="49.88304" lon="2.34654">
        <ele>30</ele>
        <time>2013-06-18T18:47:39Z</time>
      </trkpt>
      <trkpt lat="49.88298" lon="2.34641">
        <ele>30</ele>
        <time>2013-06-18T18:47:41Z</time>
      </trkpt>
      <trkpt lat="49.88293" lon="2.34626">
        <ele>30</ele>
        <time>2013-06-18T18:47:43Z</time>
      </trkpt>
      <trkpt lat="49.88288" lon="2.3461">
        <ele>30</ele>
        <time>2013-06-18T18:47:44Z</time>
      </trkpt>
      <trkpt lat="49.88283" lon="2.34594">
        <ele>30</ele>
        <time>2013-06-18T18:47:46Z</time>
      </trkpt>
      <trkpt lat="49.88282" lon="2.34576">
        <ele>30</ele>
        <time>2013-06-18T18:47:49Z</time>
      </trkpt>
      <trkpt lat="49.88282" lon="2.34559">
        <ele>30</ele>
        <time>2013-06-18T18:47:50Z</time>
      </trkpt>
      <trkpt lat="49.88283" lon="2.34542">
        <ele>30</ele>
        <time>2013-06-18T18:47:53Z</time>
      </trkpt>
      <trkpt lat="49.88283" lon="2.34524">
        <ele>30</ele>
        <time>2013-06-18T18:47:54Z</time>
      </trkpt>
      <trkpt lat="49.88284" lon="2.34507">
        <ele>29</ele>
        <time>2013-06-18T18:47:57Z</time>
      </trkpt>
      <trkpt lat="49.88285" lon="2.34489">
        <ele>29</ele>
        <time>2013-06-18T18:47:58Z</time>
      </trkpt>
      <trkpt lat="49.88286" lon="2.34472">
        <ele>29</ele>
        <time>2013-06-18T18:48:00Z</time>
      </trkpt>
      <trkpt lat="49.88287" lon="2.34454">
        <ele>29</ele>
        <time>2013-06-18T18:48:02Z</time>
      </trkpt>
      <trkpt lat="49.88288" lon="2.34437">
        <ele>29</ele>
        <time>2013-06-18T18:48:05Z</time>
      </trkpt>
      <trkpt lat="49.8829" lon="2.3442">
        <ele>29</ele>
        <time>2013-06-18T18:48:07Z</time>
      </trkpt>
      <trkpt lat="49.88291" lon="2.34402">
        <ele>29</ele>
        <time>2013-06-18T18:48:08Z</time>
      </trkpt>
      <trkpt lat="49.88294" lon="2.34384">
        <ele>28</ele>
        <time>2013-06-18T18:48:11Z</time>
      </trkpt>
      <trkpt lat="49.88297" lon="2.34367">
        <ele>28</ele>
        <time>2013-06-18T18:48:12Z</time>
      </trkpt>
      <trkpt lat="49.88299" lon="2.3435">
        <ele>28</ele>
        <time>2013-06-18T18:48:15Z</time>
      </trkpt>
      <trkpt lat="49.88302" lon="2.34334">
        <ele>28</ele>
        <time>2013-06-18T18:48:16Z</time>
      </trkpt>
      <trkpt lat="49.88305" lon="2.34318">
        <ele>28</ele>
        <time>2013-06-18T18:48:18Z</time>
      </trkpt>
      <trkpt lat="49.88308" lon="2.34301">
        <ele>27</ele>
        <time>2013-06-18T18:48:21Z</time>
      </trkpt>
      <trkpt lat="49.88311" lon="2.34285">
        <ele>27</ele>
        <time>2013-06-18T18:48:22Z</time>
      </trkpt>
      <trkpt lat="49.88315" lon="2.34269">
        <ele>26</ele>
        <time>2013-06-18T18:48:24Z</time>
      </trkpt>
      <trkpt lat="49.88318" lon="2.3425">
        <ele>26</ele>
        <time>2013-06-18T18:48:27Z</time>
      </trkpt>
      <trkpt lat="49.88321" lon="2.34236">
        <ele>26</ele>
        <time>2013-06-18T18:48:29Z</time>
      </trkpt>
      <trkpt lat="49.88324" lon="2.3422">
        <ele>26</ele>
        <time>2013-06-18T18:48:31Z</time>
      </trkpt>
      <trkpt lat="49.88327" lon="2.34206">
        <ele>26</ele>
        <time>2013-06-18T18:48:33Z</time>
      </trkpt>
      <trkpt lat="49.8833" lon="2.34191">
        <ele>26</ele>
        <time>2013-06-18T18:48:36Z</time>
      </trkpt>
      <trkpt lat="49.88333" lon="2.34175">
        <ele>26</ele>
        <time>2013-06-18T18:48:38Z</time>
      </trkpt>
      <trkpt lat="49.88337" lon="2.3416">
        <ele>25</ele>
        <time>2013-06-18T18:48:40Z</time>
      </trkpt>
      <trkpt lat="49.88342" lon="2.34144">
        <ele>24</ele>
        <time>2013-06-18T18:48:42Z</time>
      </trkpt>
      <trkpt lat="49.88346" lon="2.34127">
        <ele>23</ele>
        <time>2013-06-18T18:48:44Z</time>
      </trkpt>
      <trkpt lat="49.88351" lon="2.3411">
        <ele>23</ele>
        <time>2013-06-18T18:48:46Z</time>
      </trkpt>
      <trkpt lat="49.88357" lon="2.34094">
        <ele>23</ele>
        <time>2013-06-18T18:48:48Z</time>
      </trkpt>
      <trkpt lat="49.88362" lon="2.34078">
        <ele>23</ele>
        <time>2013-06-18T18:48:49Z</time>
      </trkpt>
      <trkpt lat="49.88365" lon="2.34062">
        <ele>23</ele>
        <time>2013-06-18T18:48:52Z</time>
      </trkpt>
      <trkpt lat="49.8837" lon="2.34047">
        <ele>23</ele>
        <time>2013-06-18T18:48:53Z</time>
      </trkpt>
      <trkpt lat="49.88373" lon="2.34031">
        <ele>23</ele>
        <time>2013-06-18T18:48:56Z</time>
      </trkpt>
      <trkpt lat="49.88375" lon="2.34015">
        <ele>23</ele>
        <time>2013-06-18T18:48:57Z</time>
      </trkpt>
      <trkpt lat="49.88381" lon="2.34002">
        <ele>23</ele>
        <time>2013-06-18T18:49:00Z</time>
      </trkpt>
      <trkpt lat="49.88387" lon="2.33988">
        <ele>23</ele>
        <time>2013-06-18T18:49:02Z</time>
      </trkpt>
      <trkpt lat="49.88394" lon="2.33975">
        <ele>23</ele>
        <time>2013-06-18T18:49:04Z</time>
      </trkpt>
      <trkpt lat="49.88404" lon="2.33965">
        <ele>22</ele>
        <time>2013-06-18T18:49:06Z</time>
      </trkpt>
      <trkpt lat="49.88413" lon="2.33956">
        <ele>21</ele>
        <time>2013-06-18T18:49:08Z</time>
      </trkpt>
      <trkpt lat="49.88423" lon="2.33946">
        <ele>21</ele>
        <time>2013-06-18T18:49:09Z</time>
      </trkpt>
      <trkpt lat="49.88434" lon="2.33941">
        <ele>21</ele>
        <time>2013-06-18T18:49:11Z</time>
      </trkpt>
      <trkpt lat="49.88443" lon="2.33932">
        <ele>22</ele>
        <time>2013-06-18T18:49:13Z</time>
      </trkpt>
      <trkpt lat="49.88449" lon="2.33919">
        <ele>23</ele>
        <time>2013-06-18T18:49:16Z</time>
      </trkpt>
      <trkpt lat="49.88454" lon="2.33908">
        <ele>24</ele>
        <time>2013-06-18T18:49:18Z</time>
      </trkpt>
      <trkpt lat="49.88462" lon="2.33897">
        <ele>24</ele>
        <time>2013-06-18T18:49:20Z</time>
      </trkpt>
      <trkpt lat="49.88469" lon="2.33886">
        <ele>24</ele>
        <time>2013-06-18T18:49:22Z</time>
      </trkpt>
      <trkpt lat="49.88477" lon="2.33875">
        <ele>24</ele>
        <time>2013-06-18T18:49:24Z</time>
      </trkpt>
      <trkpt lat="49.88485" lon="2.33863">
        <ele>24</ele>
        <time>2013-06-18T18:49:26Z</time>
      </trkpt>
      <trkpt lat="49.88492" lon="2.33851">
        <ele>24</ele>
        <time>2013-06-18T18:49:28Z</time>
      </trkpt>
      <trkpt lat="49.885" lon="2.3384">
        <ele>24</ele>
        <time>2013-06-18T18:49:30Z</time>
      </trkpt>
      <trkpt lat="49.88508" lon="2.33829">
        <ele>24</ele>
        <time>2013-06-18T18:49:32Z</time>
      </trkpt>
      <trkpt lat="49.88517" lon="2.33817">
        <ele>24</ele>
        <time>2013-06-18T18:49:34Z</time>
      </trkpt>
      <trkpt lat="49.88529" lon="2.33805">
        <ele>24</ele>
        <time>2013-06-18T18:49:37Z</time>
      </trkpt>
      <trkpt lat="49.88539" lon="2.33797">
        <ele>24</ele>
        <time>2013-06-18T18:49:39Z</time>
      </trkpt>
      <trkpt lat="49.88548" lon="2.33789">
        <ele>24</ele>
        <time>2013-06-18T18:49:41Z</time>
      </trkpt>
      <trkpt lat="49.88557" lon="2.33781">
        <ele>24</ele>
        <time>2013-06-18T18:49:43Z</time>
      </trkpt>
      <trkpt lat="49.88566" lon="2.33774">
        <ele>24</ele>
        <time>2013-06-18T18:49:45Z</time>
      </trkpt>
      <trkpt lat="49.88575" lon="2.33767">
        <ele>24</ele>
        <time>2013-06-18T18:49:47Z</time>
      </trkpt>
      <trkpt lat="49.88584" lon="2.3376">
        <ele>24</ele>
        <time>2013-06-18T18:49:49Z</time>
      </trkpt>
      <trkpt lat="49.88595" lon="2.3375">
        <ele>24</ele>
        <time>2013-06-18T18:49:52Z</time>
      </trkpt>
      <trkpt lat="49.88604" lon="2.33743">
        <ele>23</ele>
        <time>2013-06-18T18:49:54Z</time>
      </trkpt>
      <trkpt lat="49.88614" lon="2.33733">
        <ele>23</ele>
        <time>2013-06-18T18:49:56Z</time>
      </trkpt>
      <trkpt lat="49.88624" lon="2.33728">
        <ele>23</ele>
        <time>2013-06-18T18:49:58Z</time>
      </trkpt>
      <trkpt lat="49.88634" lon="2.33721">
        <ele>23</ele>
        <time>2013-06-18T18:50:00Z</time>
      </trkpt>
      <trkpt lat="49.88643" lon="2.33713">
        <ele>23</ele>
        <time>2013-06-18T18:50:02Z</time>
      </trkpt>
      <trkpt lat="49.88652" lon="2.33704">
        <ele>23</ele>
        <time>2013-06-18T18:50:03Z</time>
      </trkpt>
      <trkpt lat="49.88659" lon="2.33693">
        <ele>23</ele>
        <time>2013-06-18T18:50:06Z</time>
      </trkpt>
      <trkpt lat="49.88667" lon="2.33682">
        <ele>23</ele>
        <time>2013-06-18T18:50:07Z</time>
      </trkpt>
      <trkpt lat="49.88679" lon="2.33676">
        <ele>23</ele>
        <time>2013-06-18T18:50:10Z</time>
      </trkpt>
      <trkpt lat="49.88688" lon="2.33668">
        <ele>23</ele>
        <time>2013-06-18T18:50:12Z</time>
      </trkpt>
      <trkpt lat="49.88698" lon="2.33659">
        <ele>23</ele>
        <time>2013-06-18T18:50:14Z</time>
      </trkpt>
      <trkpt lat="49.88706" lon="2.33649">
        <ele>23</ele>
        <time>2013-06-18T18:50:16Z</time>
      </trkpt>
      <trkpt lat="49.88715" lon="2.33636">
        <ele>23</ele>
        <time>2013-06-18T18:50:19Z</time>
      </trkpt>
      <trkpt lat="49.88724" lon="2.33623">
        <ele>24</ele>
        <time>2013-06-18T18:50:22Z</time>
      </trkpt>
      <trkpt lat="49.88735" lon="2.33609">
        <ele>24</ele>
        <time>2013-06-18T18:50:25Z</time>
      </trkpt>
      <trkpt lat="49.88742" lon="2.33598">
        <ele>24</ele>
        <time>2013-06-18T18:50:27Z</time>
      </trkpt>
      <trkpt lat="49.88749" lon="2.33589">
        <ele>24</ele>
        <time>2013-06-18T18:50:29Z</time>
      </trkpt>
      <trkpt lat="49.88758" lon="2.33582">
        <ele>24</ele>
        <time>2013-06-18T18:50:30Z</time>
      </trkpt>
      <trkpt lat="49.88767" lon="2.33576">
        <ele>24</ele>
        <time>2013-06-18T18:50:32Z</time>
      </trkpt>
      <trkpt lat="49.88776" lon="2.33573">
        <ele>24</ele>
        <time>2013-06-18T18:50:34Z</time>
      </trkpt>
      <trkpt lat="49.88787" lon="2.33572">
        <ele>24</ele>
        <time>2013-06-18T18:50:37Z</time>
      </trkpt>
      <trkpt lat="49.88797" lon="2.33572">
        <ele>24</ele>
        <time>2013-06-18T18:50:39Z</time>
      </trkpt>
      <trkpt lat="49.88807" lon="2.33572">
        <ele>24</ele>
        <time>2013-06-18T18:50:41Z</time>
      </trkpt>
      <trkpt lat="49.88818" lon="2.33573">
        <ele>24</ele>
        <time>2013-06-18T18:50:43Z</time>
      </trkpt>
      <trkpt lat="49.88828" lon="2.33574">
        <ele>24</ele>
        <time>2013-06-18T18:50:45Z</time>
      </trkpt>
      <trkpt lat="49.88838" lon="2.33579">
        <ele>24</ele>
        <time>2013-06-18T18:50:47Z</time>
      </trkpt>
      <trkpt lat="49.88849" lon="2.33584">
        <ele>25</ele>
        <time>2013-06-18T18:50:49Z</time>
      </trkpt>
      <trkpt lat="49.8886" lon="2.33587">
        <ele>25</ele>
        <time>2013-06-18T18:50:51Z</time>
      </trkpt>
      <trkpt lat="49.8887" lon="2.33589">
        <ele>25</ele>
        <time>2013-06-18T18:50:53Z</time>
      </trkpt>
      <trkpt lat="49.88881" lon="2.3359">
        <ele>25</ele>
        <time>2013-06-18T18:50:55Z</time>
      </trkpt>
      <trkpt lat="49.88891" lon="2.33588">
        <ele>25</ele>
        <time>2013-06-18T18:50:57Z</time>
      </trkpt>
      <trkpt lat="49.88902" lon="2.33587">
        <ele>25</ele>
        <time>2013-06-18T18:50:59Z</time>
      </trkpt>
      <trkpt lat="49.88913" lon="2.33587">
        <ele>24</ele>
        <time>2013-06-18T18:51:01Z</time>
      </trkpt>
      <trkpt lat="49.88924" lon="2.33585">
        <ele>23</ele>
        <time>2013-06-18T18:51:03Z</time>
      </trkpt>
      <trkpt lat="49.88934" lon="2.33583">
        <ele>23</ele>
        <time>2013-06-18T18:51:05Z</time>
      </trkpt>
      <trkpt lat="49.88944" lon="2.33581">
        <ele>22</ele>
        <time>2013-06-18T18:51:07Z</time>
      </trkpt>
      <trkpt lat="49.88955" lon="2.33579">
        <ele>22</ele>
        <time>2013-06-18T18:51:09Z</time>
      </trkpt>
      <trkpt lat="49.88965" lon="2.33576">
        <ele>22</ele>
        <time>2013-06-18T18:51:11Z</time>
      </trkpt>
      <trkpt lat="49.88976" lon="2.33573">
        <ele>22</ele>
        <time>2013-06-18T18:51:13Z</time>
      </trkpt>
      <trkpt lat="49.88987" lon="2.33567">
        <ele>22</ele>
        <time>2013-06-18T18:51:15Z</time>
      </trkpt>
      <trkpt lat="49.88997" lon="2.33562">
        <ele>22</ele>
        <time>2013-06-18T18:51:16Z</time>
      </trkpt>
      <trkpt lat="49.89007" lon="2.33556">
        <ele>22</ele>
        <time>2013-06-18T18:51:18Z</time>
      </trkpt>
      <trkpt lat="49.89017" lon="2.33553">
        <ele>22</ele>
        <time>2013-06-18T18:51:21Z</time>
      </trkpt>
      <trkpt lat="49.89026" lon="2.3355">
        <ele>22</ele>
        <time>2013-06-18T18:51:23Z</time>
      </trkpt>
      <trkpt lat="49.89035" lon="2.33545">
        <ele>22</ele>
        <time>2013-06-18T18:51:25Z</time>
      </trkpt>
      <trkpt lat="49.89043" lon="2.33541">
        <ele>22</ele>
        <time>2013-06-18T18:51:26Z</time>
      </trkpt>
      <trkpt lat="49.89057" lon="2.33534">
        <ele>22</ele>
        <time>2013-06-18T18:51:30Z</time>
      </trkpt>
      <trkpt lat="49.89068" lon="2.33527">
        <ele>22</ele>
        <time>2013-06-18T18:51:33Z</time>
      </trkpt>
      <trkpt lat="49.8908" lon="2.33519">
        <ele>22</ele>
        <time>2013-06-18T18:51:35Z</time>
      </trkpt>
      <trkpt lat="49.89088" lon="2.33505">
        <ele>22</ele>
        <time>2013-06-18T18:51:39Z</time>
      </trkpt>
      <trkpt lat="49.89095" lon="2.33496">
        <ele>22</ele>
        <time>2013-06-18T18:51:41Z</time>
      </trkpt>
      <trkpt lat="49.89103" lon="2.33489">
        <ele>22</ele>
        <time>2013-06-18T18:51:41Z</time>
      </trkpt>
      <trkpt lat="49.89109" lon="2.33475">
        <ele>22</ele>
        <time>2013-06-18T18:51:44Z</time>
      </trkpt>
      <trkpt lat="49.89114" lon="2.33461">
        <ele>22</ele>
        <time>2013-06-18T18:51:46Z</time>
      </trkpt>
      <trkpt lat="49.89116" lon="2.33444">
        <ele>22</ele>
        <time>2013-06-18T18:51:48Z</time>
      </trkpt>
      <trkpt lat="49.89117" lon="2.33426">
        <ele>22</ele>
        <time>2013-06-18T18:51:50Z</time>
      </trkpt>
      <trkpt lat="49.89116" lon="2.33408">
        <ele>22</ele>
        <time>2013-06-18T18:51:52Z</time>
      </trkpt>
      <trkpt lat="49.89115" lon="2.33391">
        <ele>22</ele>
        <time>2013-06-18T18:51:54Z</time>
      </trkpt>
      <trkpt lat="49.89114" lon="2.33374">
        <ele>22</ele>
        <time>2013-06-18T18:51:55Z</time>
      </trkpt>
      <trkpt lat="49.89112" lon="2.33358">
        <ele>22</ele>
        <time>2013-06-18T18:51:58Z</time>
      </trkpt>
      <trkpt lat="49.89112" lon="2.33343">
        <ele>22</ele>
        <time>2013-06-18T18:52:00Z</time>
      </trkpt>
      <trkpt lat="49.89111" lon="2.33329">
        <ele>22</ele>
        <time>2013-06-18T18:52:01Z</time>
      </trkpt>
      <trkpt lat="49.8911" lon="2.33315">
        <ele>22</ele>
        <time>2013-06-18T18:52:04Z</time>
      </trkpt>
      <trkpt lat="49.8911" lon="2.333">
        <ele>22</ele>
        <time>2013-06-18T18:52:06Z</time>
      </trkpt>
      <trkpt lat="49.8911" lon="2.33284">
        <ele>22</ele>
        <time>2013-06-18T18:52:08Z</time>
      </trkpt>
      <trkpt lat="49.8911" lon="2.3327">
        <ele>22</ele>
        <time>2013-06-18T18:52:10Z</time>
      </trkpt>
      <trkpt lat="49.89111" lon="2.33254">
        <ele>23</ele>
        <time>2013-06-18T18:52:13Z</time>
      </trkpt>
      <trkpt lat="49.89112" lon="2.33238">
        <ele>24</ele>
        <time>2013-06-18T18:52:16Z</time>
      </trkpt>
      <trkpt lat="49.89113" lon="2.33218">
        <ele>24</ele>
        <time>2013-06-18T18:52:19Z</time>
      </trkpt>
      <trkpt lat="49.89114" lon="2.33201">
        <ele>24</ele>
        <time>2013-06-18T18:52:21Z</time>
      </trkpt>
      <trkpt lat="49.89116" lon="2.33187">
        <ele>24</ele>
        <time>2013-06-18T18:52:23Z</time>
      </trkpt>
      <trkpt lat="49.89119" lon="2.33173">
        <ele>24</ele>
        <time>2013-06-18T18:52:25Z</time>
      </trkpt>
      <trkpt lat="49.89122" lon="2.33153">
        <ele>24</ele>
        <time>2013-06-18T18:52:28Z</time>
      </trkpt>
      <trkpt lat="49.89125" lon="2.33133">
        <ele>24</ele>
        <time>2013-06-18T18:52:30Z</time>
      </trkpt>
      <trkpt lat="49.89127" lon="2.33116">
        <ele>24</ele>
        <time>2013-06-18T18:52:34Z</time>
      </trkpt>
      <trkpt lat="49.89129" lon="2.33099">
        <ele>24</ele>
        <time>2013-06-18T18:52:37Z</time>
      </trkpt>
      <trkpt lat="49.89134" lon="2.33087">
        <ele>23</ele>
        <time>2013-06-18T18:52:39Z</time>
      </trkpt>
      <trkpt lat="49.8914" lon="2.33067">
        <ele>22</ele>
        <time>2013-06-18T18:52:42Z</time>
      </trkpt>
      <trkpt lat="49.89144" lon="2.33051">
        <ele>22</ele>
        <time>2013-06-18T18:52:44Z</time>
      </trkpt>
      <trkpt lat="49.89152" lon="2.33035">
        <ele>22</ele>
        <time>2013-06-18T18:52:48Z</time>
      </trkpt>
      <trkpt lat="49.89157" lon="2.33019">
        <ele>22</ele>
        <time>2013-06-18T18:52:51Z</time>
      </trkpt>
      <trkpt lat="49.89164" lon="2.33004">
        <ele>22</ele>
        <time>2013-06-18T18:52:54Z</time>
      </trkpt>
      <trkpt lat="49.89171" lon="2.32989">
        <ele>22</ele>
        <time>2013-06-18T18:52:56Z</time>
      </trkpt>
      <trkpt lat="49.89178" lon="2.32974">
        <ele>21</ele>
        <time>2013-06-18T18:53:00Z</time>
      </trkpt>
      <trkpt lat="49.89183" lon="2.32957">
        <ele>20</ele>
        <time>2013-06-18T18:53:02Z</time>
      </trkpt>
      <trkpt lat="49.89191" lon="2.32943">
        <ele>20</ele>
        <time>2013-06-18T18:53:06Z</time>
      </trkpt>
      <trkpt lat="49.89196" lon="2.32926">
        <ele>20</ele>
        <time>2013-06-18T18:53:09Z</time>
      </trkpt>
      <trkpt lat="49.89202" lon="2.3291">
        <ele>20</ele>
        <time>2013-06-18T18:53:12Z</time>
      </trkpt>
      <trkpt lat="49.89208" lon="2.32894">
        <ele>20</ele>
        <time>2013-06-18T18:53:15Z</time>
      </trkpt>
      <trkpt lat="49.89214" lon="2.32879">
        <ele>20</ele>
        <time>2013-06-18T18:53:18Z</time>
      </trkpt>
      <trkpt lat="49.89222" lon="2.32867">
        <ele>20</ele>
        <time>2013-06-18T18:53:21Z</time>
      </trkpt>
      <trkpt lat="49.8923" lon="2.32853">
        <ele>20</ele>
        <time>2013-06-18T18:53:24Z</time>
      </trkpt>
      <trkpt lat="49.89235" lon="2.32838">
        <ele>20</ele>
        <time>2013-06-18T18:53:27Z</time>
      </trkpt>
      <trkpt lat="49.8924" lon="2.32823">
        <ele>21</ele>
        <time>2013-06-18T18:53:30Z</time>
      </trkpt>
      <trkpt lat="49.89246" lon="2.32806">
        <ele>22</ele>
        <time>2013-06-18T18:53:33Z</time>
      </trkpt>
      <trkpt lat="49.89254" lon="2.3279">
        <ele>22</ele>
        <time>2013-06-18T18:53:36Z</time>
      </trkpt>
      <trkpt lat="49.89263" lon="2.32774">
        <ele>22</ele>
        <time>2013-06-18T18:53:38Z</time>
      </trkpt>
      <trkpt lat="49.8927" lon="2.32764">
        <ele>22</ele>
        <time>2013-06-18T18:53:41Z</time>
      </trkpt>
      <trkpt lat="49.8928" lon="2.32749">
        <ele>22</ele>
        <time>2013-06-18T18:53:44Z</time>
      </trkpt>
      <trkpt lat="49.89289" lon="2.32734">
        <ele>22</ele>
        <time>2013-06-18T18:53:47Z</time>
      </trkpt>
      <trkpt lat="49.89296" lon="2.32719">
        <ele>22</ele>
        <time>2013-06-18T18:53:49Z</time>
      </trkpt>
      <trkpt lat="49.89303" lon="2.32703">
        <ele>21</ele>
        <time>2013-06-18T18:53:53Z</time>
      </trkpt>
      <trkpt lat="49.8931" lon="2.32688">
        <ele>21</ele>
        <time>2013-06-18T18:53:56Z</time>
      </trkpt>
      <trkpt lat="49.89318" lon="2.32674">
        <ele>20</ele>
        <time>2013-06-18T18:53:58Z</time>
      </trkpt>
      <trkpt lat="49.89327" lon="2.32669">
        <ele>20</ele>
        <time>2013-06-18T18:54:01Z</time>
      </trkpt>
      <trkpt lat="49.89335" lon="2.32656">
        <ele>20</ele>
        <time>2013-06-18T18:54:03Z</time>
      </trkpt>
      <trkpt lat="49.89339" lon="2.32639">
        <ele>20</ele>
        <time>2013-06-18T18:54:07Z</time>
      </trkpt>
      <trkpt lat="49.89345" lon="2.32623">
        <ele>20</ele>
        <time>2013-06-18T18:54:10Z</time>
      </trkpt>
      <trkpt lat="49.89348" lon="2.32605">
        <ele>20</ele>
        <time>2013-06-18T18:54:13Z</time>
      </trkpt>
      <trkpt lat="49.89349" lon="2.32587">
        <ele>20</ele>
        <time>2013-06-18T18:54:15Z</time>
      </trkpt>
      <trkpt lat="49.89352" lon="2.32569">
        <ele>20</ele>
        <time>2013-06-18T18:54:19Z</time>
      </trkpt>
      <trkpt lat="49.89355" lon="2.3255">
        <ele>20</ele>
        <time>2013-06-18T18:54:21Z</time>
      </trkpt>
      <trkpt lat="49.89356" lon="2.32536">
        <ele>21</ele>
        <time>2013-06-18T18:54:24Z</time>
      </trkpt>
      <trkpt lat="49.89357" lon="2.32516">
        <ele>22</ele>
        <time>2013-06-18T18:54:27Z</time>
      </trkpt>
      <trkpt lat="49.89358" lon="2.32497">
        <ele>23</ele>
        <time>2013-06-18T18:54:29Z</time>
      </trkpt>
      <trkpt lat="49.8936" lon="2.32479">
        <ele>23</ele>
        <time>2013-06-18T18:54:33Z</time>
      </trkpt>
      <trkpt lat="49.89362" lon="2.32462">
        <ele>23</ele>
        <time>2013-06-18T18:54:36Z</time>
      </trkpt>
      <trkpt lat="49.89364" lon="2.32443">
        <ele>23</ele>
        <time>2013-06-18T18:54:39Z</time>
      </trkpt>
      <trkpt lat="49.89367" lon="2.32422">
        <ele>23</ele>
        <time>2013-06-18T18:54:42Z</time>
      </trkpt>
      <trkpt lat="49.8937" lon="2.32403">
        <ele>23</ele>
        <time>2013-06-18T18:54:45Z</time>
      </trkpt>
      <trkpt lat="49.89373" lon="2.32384">
        <ele>23</ele>
        <time>2013-06-18T18:54:47Z</time>
      </trkpt>
      <trkpt lat="49.89379" lon="2.32365">
        <ele>22</ele>
        <time>2013-06-18T18:54:51Z</time>
      </trkpt>
      <trkpt lat="49.89383" lon="2.32347">
        <ele>21</ele>
        <time>2013-06-18T18:54:54Z</time>
      </trkpt>
      <trkpt lat="49.89385" lon="2.32329">
        <ele>21</ele>
        <time>2013-06-18T18:54:57Z</time>
      </trkpt>
      <trkpt lat="49.89386" lon="2.32315">
        <ele>21</ele>
        <time>2013-06-18T18:54:59Z</time>
      </trkpt>
      <trkpt lat="49.89386" lon="2.32301">
        <ele>21</ele>
        <time>2013-06-18T18:55:01Z</time>
      </trkpt>
      <trkpt lat="49.89384" lon="2.32286">
        <ele>22</ele>
        <time>2013-06-18T18:55:03Z</time>
      </trkpt>
      <trkpt lat="49.89382" lon="2.32272">
        <ele>22</ele>
        <time>2013-06-18T18:55:05Z</time>
      </trkpt>
      <trkpt lat="49.89381" lon="2.32253">
        <ele>22</ele>
        <time>2013-06-18T18:55:08Z</time>
      </trkpt>
      <trkpt lat="49.89381" lon="2.32233">
        <ele>22</ele>
        <time>2013-06-18T18:55:11Z</time>
      </trkpt>
      <trkpt lat="49.89382" lon="2.32218">
        <ele>22</ele>
        <time>2013-06-18T18:55:12Z</time>
      </trkpt>
      <trkpt lat="49.89384" lon="2.32203">
        <ele>22</ele>
        <time>2013-06-18T18:55:15Z</time>
      </trkpt>
      <trkpt lat="49.89385" lon="2.32188">
        <ele>22</ele>
        <time>2013-06-18T18:55:17Z</time>
      </trkpt>
      <trkpt lat="49.89387" lon="2.32173">
        <ele>22</ele>
        <time>2013-06-18T18:55:19Z</time>
      </trkpt>
      <trkpt lat="49.89391" lon="2.32158">
        <ele>23</ele>
        <time>2013-06-18T18:55:20Z</time>
      </trkpt>
      <trkpt lat="49.89395" lon="2.32145">
        <ele>23</ele>
        <time>2013-06-18T18:55:23Z</time>
      </trkpt>
      <trkpt lat="49.89399" lon="2.3213">
        <ele>23</ele>
        <time>2013-06-18T18:55:24Z</time>
      </trkpt>
      <trkpt lat="49.89392" lon="2.32106">
        <ele>23</ele>
        <time>2013-06-18T18:55:27Z</time>
      </trkpt>
      <trkpt lat="49.89391" lon="2.32087">
        <ele>23</ele>
        <time>2013-06-18T18:55:29Z</time>
      </trkpt>
      <trkpt lat="49.89394" lon="2.32071">
        <ele>23</ele>
        <time>2013-06-18T18:55:31Z</time>
      </trkpt>
      <trkpt lat="49.89398" lon="2.32056">
        <ele>23</ele>
        <time>2013-06-18T18:55:33Z</time>
      </trkpt>
      <trkpt lat="49.89401" lon="2.32042">
        <ele>23</ele>
        <time>2013-06-18T18:55:35Z</time>
      </trkpt>
      <trkpt lat="49.89404" lon="2.32027">
        <ele>23</ele>
        <time>2013-06-18T18:55:37Z</time>
      </trkpt>
      <trkpt lat="49.89407" lon="2.32012">
        <ele>23</ele>
        <time>2013-06-18T18:55:39Z</time>
      </trkpt>
      <trkpt lat="49.89409" lon="2.31997">
        <ele>23</ele>
        <time>2013-06-18T18:55:41Z</time>
      </trkpt>
      <trkpt lat="49.89411" lon="2.31982">
        <ele>22</ele>
        <time>2013-06-18T18:55:43Z</time>
      </trkpt>
      <trkpt lat="49.89411" lon="2.31968">
        <ele>22</ele>
        <time>2013-06-18T18:55:45Z</time>
      </trkpt>
      <trkpt lat="49.89411" lon="2.31953">
        <ele>22</ele>
        <time>2013-06-18T18:55:47Z</time>
      </trkpt>
      <trkpt lat="49.89411" lon="2.31939">
        <ele>22</ele>
        <time>2013-06-18T18:55:49Z</time>
      </trkpt>
      <trkpt lat="49.8941" lon="2.31925">
        <ele>22</ele>
        <time>2013-06-18T18:55:51Z</time>
      </trkpt>
      <trkpt lat="49.89409" lon="2.3191">
        <ele>22</ele>
        <time>2013-06-18T18:55:53Z</time>
      </trkpt>
      <trkpt lat="49.89408" lon="2.31896">
        <ele>22</ele>
        <time>2013-06-18T18:55:55Z</time>
      </trkpt>
      <trkpt lat="49.89406" lon="2.31876">
        <ele>22</ele>
        <time>2013-06-18T18:55:58Z</time>
      </trkpt>
      <trkpt lat="49.89405" lon="2.31857">
        <ele>22</ele>
        <time>2013-06-18T18:56:01Z</time>
      </trkpt>
      <trkpt lat="49.89405" lon="2.31837">
        <ele>22</ele>
        <time>2013-06-18T18:56:04Z</time>
      </trkpt>
      <trkpt lat="49.89406" lon="2.31817">
        <ele>22</ele>
        <time>2013-06-18T18:56:07Z</time>
      </trkpt>
      <trkpt lat="49.89409" lon="2.31797">
        <ele>22</ele>
        <time>2013-06-18T18:56:10Z</time>
      </trkpt>
      <trkpt lat="49.89412" lon="2.31784">
        <ele>22</ele>
        <time>2013-06-18T18:56:12Z</time>
      </trkpt>
      <trkpt lat="49.89416" lon="2.31771">
        <ele>22</ele>
        <time>2013-06-18T18:56:14Z</time>
      </trkpt>
      <trkpt lat="49.8942" lon="2.31759">
        <ele>22</ele>
        <time>2013-06-18T18:56:16Z</time>
      </trkpt>
      <trkpt lat="49.89424" lon="2.31746">
        <ele>22</ele>
        <time>2013-06-18T18:56:18Z</time>
      </trkpt>
      <trkpt lat="49.89429" lon="2.31727">
        <ele>22</ele>
        <time>2013-06-18T18:56:21Z</time>
      </trkpt>
      <trkpt lat="49.89433" lon="2.31707">
        <ele>22</ele>
        <time>2013-06-18T18:56:24Z</time>
      </trkpt>
      <trkpt lat="49.89433" lon="2.31693">
        <ele>23</ele>
        <time>2013-06-18T18:56:25Z</time>
      </trkpt>
      <trkpt lat="49.89432" lon="2.31679">
        <ele>24</ele>
        <time>2013-06-18T18:56:28Z</time>
      </trkpt>
      <trkpt lat="49.89433" lon="2.3166">
        <ele>24</ele>
        <time>2013-06-18T18:56:31Z</time>
      </trkpt>
      <trkpt lat="49.89435" lon="2.31646">
        <ele>24</ele>
        <time>2013-06-18T18:56:33Z</time>
      </trkpt>
      <trkpt lat="49.89436" lon="2.31631">
        <ele>24</ele>
        <time>2013-06-18T18:56:35Z</time>
      </trkpt>
      <trkpt lat="49.89437" lon="2.31614">
        <ele>24</ele>
        <time>2013-06-18T18:56:37Z</time>
      </trkpt>
      <trkpt lat="49.89438" lon="2.31596">
        <ele>24</ele>
        <time>2013-06-18T18:56:39Z</time>
      </trkpt>
      <trkpt lat="49.89438" lon="2.31578">
        <ele>24</ele>
        <time>2013-06-18T18:56:41Z</time>
      </trkpt>
      <trkpt lat="49.89438" lon="2.3156">
        <ele>24</ele>
        <time>2013-06-18T18:56:43Z</time>
      </trkpt>
      <trkpt lat="49.89439" lon="2.31541">
        <ele>24</ele>
        <time>2013-06-18T18:56:45Z</time>
      </trkpt>
      <trkpt lat="49.89439" lon="2.31523">
        <ele>24</ele>
        <time>2013-06-18T18:56:47Z</time>
      </trkpt>
      <trkpt lat="49.89439" lon="2.31505">
        <ele>24</ele>
        <time>2013-06-18T18:56:49Z</time>
      </trkpt>
      <trkpt lat="49.8944" lon="2.31487">
        <ele>24</ele>
        <time>2013-06-18T18:56:51Z</time>
      </trkpt>
      <trkpt lat="49.8944" lon="2.3147">
        <ele>24</ele>
        <time>2013-06-18T18:56:53Z</time>
      </trkpt>
      <trkpt lat="49.89441" lon="2.31453">
        <ele>24</ele>
        <time>2013-06-18T18:56:55Z</time>
      </trkpt>
      <trkpt lat="49.89442" lon="2.31437">
        <ele>24</ele>
        <time>2013-06-18T18:56:57Z</time>
      </trkpt>
      <trkpt lat="49.89442" lon="2.31421">
        <ele>24</ele>
        <time>2013-06-18T18:56:59Z</time>
      </trkpt>
      <trkpt lat="49.89444" lon="2.31406">
        <ele>24</ele>
        <time>2013-06-18T18:57:01Z</time>
      </trkpt>
      <trkpt lat="49.89446" lon="2.31392">
        <ele>24</ele>
        <time>2013-06-18T18:57:03Z</time>
      </trkpt>
      <trkpt lat="49.89449" lon="2.31378">
        <ele>24</ele>
        <time>2013-06-18T18:57:05Z</time>
      </trkpt>
      <trkpt lat="49.89453" lon="2.31364">
        <ele>24</ele>
        <time>2013-06-18T18:57:07Z</time>
      </trkpt>
      <trkpt lat="49.89458" lon="2.31351">
        <ele>24</ele>
        <time>2013-06-18T18:57:09Z</time>
      </trkpt>
      <trkpt lat="49.89462" lon="2.31338">
        <ele>24</ele>
        <time>2013-06-18T18:57:11Z</time>
      </trkpt>
      <trkpt lat="49.89467" lon="2.31323">
        <ele>24</ele>
        <time>2013-06-18T18:57:14Z</time>
      </trkpt>
      <trkpt lat="49.89471" lon="2.31308">
        <ele>24</ele>
        <time>2013-06-18T18:57:17Z</time>
      </trkpt>
      <trkpt lat="49.89477" lon="2.31292">
        <ele>24</ele>
        <time>2013-06-18T18:57:20Z</time>
      </trkpt>
      <trkpt lat="49.8948" lon="2.31278">
        <ele>24</ele>
        <time>2013-06-18T18:57:22Z</time>
      </trkpt>
      <trkpt lat="49.89484" lon="2.31262">
        <ele>24</ele>
        <time>2013-06-18T18:57:24Z</time>
      </trkpt>
      <trkpt lat="49.89488" lon="2.31245">
        <ele>24</ele>
        <time>2013-06-18T18:57:26Z</time>
      </trkpt>
      <trkpt lat="49.89491" lon="2.31228">
        <ele>24</ele>
        <time>2013-06-18T18:57:28Z</time>
      </trkpt>
      <trkpt lat="49.89493" lon="2.31212">
        <ele>24</ele>
        <time>2013-06-18T18:57:30Z</time>
      </trkpt>
      <trkpt lat="49.89493" lon="2.31196">
        <ele>24</ele>
        <time>2013-06-18T18:57:32Z</time>
      </trkpt>
      <trkpt lat="49.89494" lon="2.3118">
        <ele>24</ele>
        <time>2013-06-18T18:57:34Z</time>
      </trkpt>
      <trkpt lat="49.89495" lon="2.31164">
        <ele>24</ele>
        <time>2013-06-18T18:57:36Z</time>
      </trkpt>
      <trkpt lat="49.89498" lon="2.31147">
        <ele>24</ele>
        <time>2013-06-18T18:57:38Z</time>
      </trkpt>
      <trkpt lat="49.89498" lon="2.31131">
        <ele>23</ele>
        <time>2013-06-18T18:57:40Z</time>
      </trkpt>
      <trkpt lat="49.89499" lon="2.31115">
        <ele>23</ele>
        <time>2013-06-18T18:57:42Z</time>
      </trkpt>
      <trkpt lat="49.895" lon="2.311">
        <ele>23</ele>
        <time>2013-06-18T18:57:44Z</time>
      </trkpt>
      <trkpt lat="49.89502" lon="2.31085">
        <ele>23</ele>
        <time>2013-06-18T18:57:46Z</time>
      </trkpt>
      <trkpt lat="49.89504" lon="2.31068">
        <ele>23</ele>
        <time>2013-06-18T18:57:49Z</time>
      </trkpt>
      <trkpt lat="49.89508" lon="2.31054">
        <ele>23</ele>
        <time>2013-06-18T18:57:51Z</time>
      </trkpt>
      <trkpt lat="49.89514" lon="2.31039">
        <ele>23</ele>
        <time>2013-06-18T18:57:54Z</time>
      </trkpt>
      <trkpt lat="49.89522" lon="2.31026">
        <ele>23</ele>
        <time>2013-06-18T18:57:57Z</time>
      </trkpt>
      <trkpt lat="49.89528" lon="2.31015">
        <ele>23</ele>
        <time>2013-06-18T18:58:00Z</time>
      </trkpt>
      <trkpt lat="49.89537" lon="2.31007">
        <ele>24</ele>
        <time>2013-06-18T18:58:05Z</time>
      </trkpt>
      <trkpt lat="49.89544" lon="2.31015">
        <ele>24</ele>
        <time>2013-06-18T18:58:11Z</time>
      </trkpt>
      <trkpt lat="49.89554" lon="2.31019">
        <ele>25</ele>
        <time>2013-06-18T18:58:18Z</time>
      </trkpt>
      <trkpt lat="49.89564" lon="2.31024">
        <ele>26</ele>
        <time>2013-06-18T18:58:22Z</time>
      </trkpt>
      <trkpt lat="49.89572" lon="2.31037">
        <ele>27</ele>
        <time>2013-06-18T18:58:26Z</time>
      </trkpt>
      <trkpt lat="49.89582" lon="2.31047">
        <ele>28</ele>
        <time>2013-06-18T18:58:29Z</time>
      </trkpt>
      <trkpt lat="49.89594" lon="2.31055">
        <ele>29</ele>
        <time>2013-06-18T18:58:32Z</time>
      </trkpt>
      <trkpt lat="49.89604" lon="2.31064">
        <ele>29</ele>
        <time>2013-06-18T18:58:35Z</time>
      </trkpt>
      <trkpt lat="49.89614" lon="2.31073">
        <ele>29</ele>
        <time>2013-06-18T18:58:38Z</time>
      </trkpt>
      <trkpt lat="49.89622" lon="2.31082">
        <ele>29</ele>
        <time>2013-06-18T18:58:41Z</time>
      </trkpt>
      <trkpt lat="49.8963" lon="2.31089">
        <ele>29</ele>
        <time>2013-06-18T18:58:44Z</time>
      </trkpt>
      <trkpt lat="49.8964" lon="2.31096">
        <ele>29</ele>
        <time>2013-06-18T18:58:47Z</time>
      </trkpt>
      <trkpt lat="49.89652" lon="2.31106">
        <ele>29</ele>
        <time>2013-06-18T18:58:50Z</time>
      </trkpt>
      <trkpt lat="49.89663" lon="2.3111">
        <ele>29</ele>
        <time>2013-06-18T18:58:53Z</time>
      </trkpt>
      <trkpt lat="49.89673" lon="2.31118">
        <ele>28</ele>
        <time>2013-06-18T18:58:56Z</time>
      </trkpt>
      <trkpt lat="49.89684" lon="2.31125">
        <ele>28</ele>
        <time>2013-06-18T18:58:59Z</time>
      </trkpt>
      <trkpt lat="49.89696" lon="2.31136">
        <ele>27</ele>
        <time>2013-06-18T18:59:02Z</time>
      </trkpt>
      <trkpt lat="49.89705" lon="2.31142">
        <ele>27</ele>
        <time>2013-06-18T18:59:04Z</time>
      </trkpt>
      <trkpt lat="49.89716" lon="2.31143">
        <ele>27</ele>
        <time>2013-06-18T18:59:06Z</time>
      </trkpt>
      <trkpt lat="49.89727" lon="2.31147">
        <ele>27</ele>
        <time>2013-06-18T18:59:08Z</time>
      </trkpt>
      <trkpt lat="49.89736" lon="2.31153">
        <ele>27</ele>
        <time>2013-06-18T18:59:10Z</time>
      </trkpt>
      <trkpt lat="49.89745" lon="2.31159">
        <ele>27</ele>
        <time>2013-06-18T18:59:12Z</time>
      </trkpt>
      <trkpt lat="49.89754" lon="2.31166">
        <ele>27</ele>
        <time>2013-06-18T18:59:14Z</time>
      </trkpt>
      <trkpt lat="49.89765" lon="2.31173">
        <ele>28</ele>
        <time>2013-06-18T18:59:17Z</time>
      </trkpt>
      <trkpt lat="49.89776" lon="2.31183">
        <ele>29</ele>
        <time>2013-06-18T18:59:20Z</time>
      </trkpt>
      <trkpt lat="49.89787" lon="2.3119">
        <ele>30</ele>
        <time>2013-06-18T18:59:23Z</time>
      </trkpt>
      <trkpt lat="49.89798" lon="2.31198">
        <ele>31</ele>
        <time>2013-06-18T18:59:26Z</time>
      </trkpt>
      <trkpt lat="49.89807" lon="2.31207">
        <ele>32</ele>
        <time>2013-06-18T18:59:29Z</time>
      </trkpt>
      <trkpt lat="49.89816" lon="2.31217">
        <ele>32</ele>
        <time>2013-06-18T18:59:33Z</time>
      </trkpt>
      <trkpt lat="49.89823" lon="2.31226">
        <ele>32</ele>
        <time>2013-06-18T18:59:36Z</time>
      </trkpt>
      <trkpt lat="49.89831" lon="2.31234">
        <ele>32</ele>
        <time>2013-06-18T18:59:39Z</time>
      </trkpt>
      <trkpt lat="49.89841" lon="2.31244">
        <ele>32</ele>
        <time>2013-06-18T18:59:42Z</time>
      </trkpt>
      <trkpt lat="49.89852" lon="2.31254">
        <ele>32</ele>
        <time>2013-06-18T18:59:45Z</time>
      </trkpt>
      <trkpt lat="49.89859" lon="2.31262">
        <ele>32</ele>
        <time>2013-06-18T18:59:47Z</time>
      </trkpt>
      <trkpt lat="49.89867" lon="2.3127">
        <ele>32</ele>
        <time>2013-06-18T18:59:49Z</time>
      </trkpt>
      <trkpt lat="49.89876" lon="2.31279">
        <ele>32</ele>
        <time>2013-06-18T18:59:52Z</time>
      </trkpt>
      <trkpt lat="49.89885" lon="2.31283">
        <ele>32</ele>
        <time>2013-06-18T18:59:54Z</time>
      </trkpt>
      <trkpt lat="49.89899" lon="2.31283">
        <ele>32</ele>
        <time>2013-06-18T18:59:57Z</time>
      </trkpt>
      <trkpt lat="49.89909" lon="2.31284">
        <ele>32</ele>
        <time>2013-06-18T18:59:59Z</time>
      </trkpt>
      <trkpt lat="49.89922" lon="2.3129">
        <ele>32</ele>
        <time>2013-06-18T19:00:02Z</time>
      </trkpt>
      <trkpt lat="49.89933" lon="2.31298">
        <ele>33</ele>
        <time>2013-06-18T19:00:05Z</time>
      </trkpt>
      <trkpt lat="49.89945" lon="2.31307">
        <ele>34</ele>
        <time>2013-06-18T19:00:08Z</time>
      </trkpt>
      <trkpt lat="49.89957" lon="2.31315">
        <ele>35</ele>
        <time>2013-06-18T19:00:11Z</time>
      </trkpt>
      <trkpt lat="49.89966" lon="2.31321">
        <ele>36</ele>
        <time>2013-06-18T19:00:13Z</time>
      </trkpt>
      <trkpt lat="49.89977" lon="2.31327">
        <ele>36</ele>
        <time>2013-06-18T19:00:15Z</time>
      </trkpt>
      <trkpt lat="49.89987" lon="2.31332">
        <ele>36</ele>
        <time>2013-06-18T19:00:16Z</time>
      </trkpt>
      <trkpt lat="49.89996" lon="2.31337">
        <ele>36</ele>
        <time>2013-06-18T19:00:19Z</time>
      </trkpt>
      <trkpt lat="49.90004" lon="2.31344">
        <ele>36</ele>
        <time>2013-06-18T19:00:20Z</time>
      </trkpt>
      <trkpt lat="49.90012" lon="2.31352">
        <ele>36</ele>
        <time>2013-06-18T19:00:24Z</time>
      </trkpt>
      <trkpt lat="49.90023" lon="2.3136">
        <ele>36</ele>
        <time>2013-06-18T19:00:28Z</time>
      </trkpt>
      <trkpt lat="49.90032" lon="2.31368">
        <ele>36</ele>
        <time>2013-06-18T19:00:30Z</time>
      </trkpt>
      <trkpt lat="49.90041" lon="2.31375">
        <ele>36</ele>
        <time>2013-06-18T19:00:32Z</time>
      </trkpt>
      <trkpt lat="49.90051" lon="2.31381">
        <ele>36</ele>
        <time>2013-06-18T19:00:34Z</time>
      </trkpt>
      <trkpt lat="49.90061" lon="2.31388">
        <ele>36</ele>
        <time>2013-06-18T19:00:36Z</time>
      </trkpt>
      <trkpt lat="49.90072" lon="2.31395">
        <ele>36</ele>
        <time>2013-06-18T19:00:38Z</time>
      </trkpt>
      <trkpt lat="49.90084" lon="2.31402">
        <ele>36</ele>
        <time>2013-06-18T19:00:41Z</time>
      </trkpt>
      <trkpt lat="49.90093" lon="2.31408">
        <ele>36</ele>
        <time>2013-06-18T19:00:43Z</time>
      </trkpt>
      <trkpt lat="49.90102" lon="2.31414">
        <ele>36</ele>
        <time>2013-06-18T19:00:45Z</time>
      </trkpt>
      <trkpt lat="49.90111" lon="2.31418">
        <ele>36</ele>
        <time>2013-06-18T19:00:47Z</time>
      </trkpt>
      <trkpt lat="49.9012" lon="2.31422">
        <ele>36</ele>
        <time>2013-06-18T19:00:49Z</time>
      </trkpt>
      <trkpt lat="49.90132" lon="2.31431">
        <ele>36</ele>
        <time>2013-06-18T19:00:52Z</time>
      </trkpt>
      <trkpt lat="49.90142" lon="2.31439">
        <ele>37</ele>
        <time>2013-06-18T19:00:55Z</time>
      </trkpt>
      <trkpt lat="49.90151" lon="2.31446">
        <ele>38</ele>
        <time>2013-06-18T19:00:58Z</time>
      </trkpt>
      <trkpt lat="49.90163" lon="2.31454">
        <ele>39</ele>
        <time>2013-06-18T19:01:01Z</time>
      </trkpt>
      <trkpt lat="49.90176" lon="2.31463">
        <ele>40</ele>
        <time>2013-06-18T19:01:04Z</time>
      </trkpt>
      <trkpt lat="49.90186" lon="2.31469">
        <ele>42</ele>
        <time>2013-06-18T19:01:06Z</time>
      </trkpt>
      <trkpt lat="49.90194" lon="2.31477">
        <ele>43</ele>
        <time>2013-06-18T19:01:08Z</time>
      </trkpt>
      <trkpt lat="49.90203" lon="2.31486">
        <ele>44</ele>
        <time>2013-06-18T19:01:10Z</time>
      </trkpt>
      <trkpt lat="49.90213" lon="2.31492">
        <ele>45</ele>
        <time>2013-06-18T19:01:12Z</time>
      </trkpt>
      <trkpt lat="49.90222" lon="2.31498">
        <ele>46</ele>
        <time>2013-06-18T19:01:14Z</time>
      </trkpt>
      <trkpt lat="49.9023" lon="2.31502">
        <ele>47</ele>
        <time>2013-06-18T19:01:16Z</time>
      </trkpt>
      <trkpt lat="49.90239" lon="2.31507">
        <ele>49</ele>
        <time>2013-06-18T19:01:18Z</time>
      </trkpt>
      <trkpt lat="49.90248" lon="2.31513">
        <ele>50</ele>
        <time>2013-06-18T19:01:20Z</time>
      </trkpt>
      <trkpt lat="49.90257" lon="2.31519">
        <ele>51</ele>
        <time>2013-06-18T19:01:22Z</time>
      </trkpt>
      <trkpt lat="49.90268" lon="2.31528">
        <ele>52</ele>
        <time>2013-06-18T19:01:25Z</time>
      </trkpt>
      <trkpt lat="49.90278" lon="2.31533">
        <ele>52</ele>
        <time>2013-06-18T19:01:27Z</time>
      </trkpt>
      <trkpt lat="49.90288" lon="2.31537">
        <ele>53</ele>
        <time>2013-06-18T19:01:29Z</time>
      </trkpt>
      <trkpt lat="49.90299" lon="2.31543">
        <ele>54</ele>
        <time>2013-06-18T19:01:32Z</time>
      </trkpt>
      <trkpt lat="49.90309" lon="2.31547">
        <ele>54</ele>
        <time>2013-06-18T19:01:35Z</time>
      </trkpt>
      <trkpt lat="49.90312" lon="2.31533">
        <ele>53</ele>
        <time>2013-06-18T19:01:38Z</time>
      </trkpt>
      <trkpt lat="49.90306" lon="2.31519">
        <ele>52</ele>
        <time>2013-06-18T19:01:40Z</time>
      </trkpt>
      <trkpt lat="49.90297" lon="2.31505">
        <ele>51</ele>
        <time>2013-06-18T19:01:43Z</time>
      </trkpt>
      <trkpt lat="49.90285" lon="2.31502">
        <ele>50</ele>
        <time>2013-06-18T19:01:46Z</time>
      </trkpt>
      <trkpt lat="49.90273" lon="2.31496">
        <ele>50</ele>
        <time>2013-06-18T19:01:49Z</time>
      </trkpt>
      <trkpt lat="49.90262" lon="2.3149">
        <ele>50</ele>
        <time>2013-06-18T19:01:52Z</time>
      </trkpt>
      <trkpt lat="49.90249" lon="2.3148">
        <ele>49</ele>
        <time>2013-06-18T19:01:55Z</time>
      </trkpt>
      <trkpt lat="49.90238" lon="2.31472">
        <ele>49</ele>
        <time>2013-06-18T19:01:58Z</time>
      </trkpt>
      <trkpt lat="49.90227" lon="2.31468">
        <ele>49</ele>
        <time>2013-06-18T19:02:01Z</time>
      </trkpt>
      <trkpt lat="49.90218" lon="2.31461">
        <ele>49</ele>
        <time>2013-06-18T19:02:04Z</time>
      </trkpt>
      <trkpt lat="49.90209" lon="2.31456">
        <ele>49</ele>
        <time>2013-06-18T19:02:07Z</time>
      </trkpt>
      <trkpt lat="49.90201" lon="2.31451">
        <ele>50</ele>
        <time>2013-06-18T19:02:10Z</time>
      </trkpt>
      <trkpt lat="49.90192" lon="2.31445">
        <ele>50</ele>
        <time>2013-06-18T19:02:13Z</time>
      </trkpt>
      <trkpt lat="49.90183" lon="2.31439">
        <ele>50</ele>
        <time>2013-06-18T19:02:16Z</time>
      </trkpt>
      <trkpt lat="49.90173" lon="2.31432">
        <ele>49</ele>
        <time>2013-06-18T19:02:19Z</time>
      </trkpt>
      <trkpt lat="49.90163" lon="2.31425">
        <ele>49</ele>
        <time>2013-06-18T19:02:22Z</time>
      </trkpt>
      <trkpt lat="49.90152" lon="2.31418">
        <ele>49</ele>
        <time>2013-06-18T19:02:25Z</time>
      </trkpt>
      <trkpt lat="49.90142" lon="2.31412">
        <ele>49</ele>
        <time>2013-06-18T19:02:28Z</time>
      </trkpt>
      <trkpt lat="49.90132" lon="2.31406">
        <ele>48</ele>
        <time>2013-06-18T19:02:31Z</time>
      </trkpt>
      <trkpt lat="49.90122" lon="2.31399">
        <ele>47</ele>
        <time>2013-06-18T19:02:34Z</time>
      </trkpt>
      <trkpt lat="49.90111" lon="2.31393">
        <ele>46</ele>
        <time>2013-06-18T19:02:37Z</time>
      </trkpt>
      <trkpt lat="49.90101" lon="2.31386">
        <ele>46</ele>
        <time>2013-06-18T19:02:40Z</time>
      </trkpt>
      <trkpt lat="49.90091" lon="2.31376">
        <ele>45</ele>
        <time>2013-06-18T19:02:43Z</time>
      </trkpt>
      <trkpt lat="49.90091" lon="2.31356">
        <ele>43</ele>
        <time>2013-06-18T19:02:46Z</time>
      </trkpt>
      <trkpt lat="49.90097" lon="2.31342">
        <ele>41</ele>
        <time>2013-06-18T19:02:48Z</time>
      </trkpt>
      <trkpt lat="49.90102" lon="2.31328">
        <ele>40</ele>
        <time>2013-06-18T19:02:50Z</time>
      </trkpt>
      <trkpt lat="49.90107" lon="2.31316">
        <ele>39</ele>
        <time>2013-06-18T19:02:52Z</time>
      </trkpt>
      <trkpt lat="49.90115" lon="2.31307">
        <ele>39</ele>
        <time>2013-06-18T19:02:56Z</time>
      </trkpt>
      <trkpt lat="49.90125" lon="2.31312">
        <ele>40</ele>
        <time>2013-06-18T19:03:00Z</time>
      </trkpt>
      <trkpt lat="49.90135" lon="2.31316">
        <ele>40</ele>
        <time>2013-06-18T19:03:04Z</time>
      </trkpt>
    </trkseg>
  </trk>
</gpx>